Wetterdaten: Sonntag, 15.11.2020
Datum Zeit Temp. Aussen Temp. o. S. Temp +5cm Feuchte Auss Luftdruck Regen Sonnenschein Regendauer Solar Windben Empfang
15.11.2020 00:00 12,1 C 11,1 C 10,0 C 90 % 1012,3 hPa 0,0 l/m 0 min 0 min 0 W/m 6,4 km/h (2 Bft) 100,00 %
15.11.2020 00:02 12,1 C 11,1 C 10,6 C 90 % 1012,3 hPa 0,0 l/m 0 min 0 min 0 W/m 6,4 km/h (2 Bft) 95,12 %
15.11.2020 00:04 12,1 C 11,1 C 10,0 C 90 % 1012,3 hPa 0,0 l/m 0 min 0 min 0 W/m 3,2 km/h (1 Bft) 100,00 %
15.11.2020 00:08 12,1 C 11,1 C 10,0 C 90 % 1012,3 hPa 0,0 l/m 0 min 0 min 0 W/m 0,0 km/h (0 Bft) 97,85 %
15.11.2020 00:10 12,1 C 11,1 C 10,0 C 90 % 1012,3 hPa 0,0 l/m 0 min 0 min 0 W/m 6,4 km/h (2 Bft) 97,87 %
15.11.2020 00:12 12,0 C 11,1 C 10,0 C 90 % 1012,2 hPa 0,0 l/m 0 min 0 min 0 W/m 3,2 km/h (1 Bft) 97,87 %
15.11.2020 00:14 12,0 C 11,1 C 10,0 C 90 % 1012,2 hPa 0,0 l/m 0 min 0 min 0 W/m 3,2 km/h (1 Bft) 97,87 %
15.11.2020 00:16 12,0 C 11,1 C 10,0 C 90 % 1012,3 hPa 0,0 l/m 0 min 0 min 0 W/m 3,2 km/h (1 Bft) 97,87 %
15.11.2020 00:18 12,0 C 11,1 C 10,0 C 90 % 1012,2 hPa 0,0 l/m 0 min 0 min 0 W/m 3,2 km/h (1 Bft) 97,87 %
15.11.2020 00:20 12,0 C 11,1 C 10,0 C 90 % 1012,2 hPa 0,0 l/m 0 min 0 min 0 W/m 0,0 km/h (0 Bft) 93,48 %
15.11.2020 00:22 12,0 C 11,1 C 10,0 C 90 % 1012,2 hPa 0,0 l/m 0 min 0 min 0 W/m 0,0 km/h (0 Bft) 97,87 %
15.11.2020 00:24 12,0 C 11,1 C 10,0 C 90 % 1012,1 hPa 0,0 l/m 0 min 0 min 0 W/m 6,4 km/h (2 Bft) 95,74 %
15.11.2020 00:26 12,0 C 11,1 C 10,0 C 90 % 1012,1 hPa 0,0 l/m 0 min 0 min 0 W/m 0,0 km/h (0 Bft) 97,87 %
15.11.2020 00:28 12,0 C 11,1 C 10,0 C 90 % 1012,1 hPa 0,0 l/m 0 min 0 min 0 W/m 3,2 km/h (1 Bft) 97,87 %
15.11.2020 00:30 12,0 C 11,1 C 10,0 C 90 % 1012,1 hPa 0,0 l/m 0 min 0 min 0 W/m 3,2 km/h (1 Bft) 97,87 %
15.11.2020 00:32 11,9 C 11,1 C 10,0 C 90 % 1012,0 hPa 0,0 l/m 0 min 0 min 0 W/m 3,2 km/h (1 Bft) 97,83 %
15.11.2020 00:34 11,9 C 11,1 C 10,0 C 91 % 1012,0 hPa 0,0 l/m 0 min 0 min 0 W/m 0,0 km/h (0 Bft) 95,74 %
15.11.2020 00:36 11,9 C 11,1 C 10,0 C 91 % 1012,0 hPa 0,0 l/m 0 min 0 min 0 W/m 3,2 km/h (1 Bft) 93,62 %
15.11.2020 00:38 11,9 C 11,1 C 10,0 C 91 % 1012,0 hPa 0,0 l/m 0 min 0 min 0 W/m 3,2 km/h (1 Bft) 95,74 %
15.11.2020 00:40 11,9 C 11,1 C 10,0 C 91 % 1012,0 hPa 0,0 l/m 0 min 0 min 0 W/m 6,4 km/h (2 Bft) 95,74 %
15.11.2020 00:42 11,9 C 11,1 C 10,0 C 91 % 1012,0 hPa 0,0 l/m 0 min 0 min 0 W/m 3,2 km/h (1 Bft) 93,48 %
15.11.2020 00:44 11,9 C 11,1 C 10,0 C 91 % 1011,9 hPa 0,0 l/m 0 min 0 min 0 W/m 3,2 km/h (1 Bft) 95,74 %
15.11.2020 00:46 11,9 C 11,1 C 10,0 C 91 % 1011,9 hPa 0,0 l/m 0 min 0 min 0 W/m 6,4 km/h (2 Bft) 95,74 %
15.11.2020 00:48 11,9 C 11,1 C 10,0 C 91 % 1011,9 hPa 0,0 l/m 0 min 0 min 0 W/m 3,2 km/h (1 Bft) 93,62 %
15.11.2020 00:50 11,9 C 11,1 C 10,0 C 91 % 1011,9 hPa 0,0 l/m 0 min 0 min 0 W/m 3,2 km/h (1 Bft) 93,62 %
15.11.2020 00:52 11,9 C 11,1 C 10,6 C 91 % 1011,9 hPa 0,0 l/m 0 min 0 min 0 W/m 3,2 km/h (1 Bft) 95,74 %
15.11.2020 00:54 11,9 C 11,1 C 10,0 C 91 % 1011,9 hPa 0,0 l/m 0 min 0 min 0 W/m 3,2 km/h (1 Bft) 97,87 %
15.11.2020 00:56 11,9 C 11,1 C 10,0 C 91 % 1011,9 hPa 0,0 l/m 0 min 0 min 0 W/m 3,2 km/h (1 Bft) 97,83 %
15.11.2020 00:58 11,9 C 11,1 C 10,6 C 91 % 1011,8 hPa 0,0 l/m 0 min 0 min 0 W/m 6,4 km/h (2 Bft) 97,87 %
15.11.2020 01:00 11,9 C 11,1 C 10,6 C 91 % 1011,8 hPa 0,0 l/m 0 min 0 min 0 W/m 3,2 km/h (1 Bft) 97,87 %
15.11.2020 01:02 11,9 C 11,1 C 10,6 C 91 % 1011,8 hPa 0,0 l/m 0 min 0 min 0 W/m 6,4 km/h (2 Bft) 97,87 %
15.11.2020 01:04 11,9 C 11,1 C 10,6 C 91 % 1011,9 hPa 0,0 l/m 0 min 0 min 0 W/m 3,2 km/h (1 Bft) 97,87 %
15.11.2020 01:06 11,9 C 11,1 C 10,0 C 91 % 1011,9 hPa 0,0 l/m 0 min 0 min 0 W/m 0,0 km/h (0 Bft) 95,65 %
15.11.2020 01:08 11,9 C 11,1 C 10,0 C 91 % 1011,9 hPa 0,0 l/m 0 min 0 min 0 W/m 0,0 km/h (0 Bft) 97,87 %
15.11.2020 01:10 11,9 C 11,1 C 10,0 C 91 % 1011,9 hPa 0,0 l/m 0 min 0 min 0 W/m 0,0 km/h (0 Bft) 97,87 %
15.11.2020 01:12 11,9 C 11,1 C 10,0 C 91 % 1011,8 hPa 0,0 l/m 0 min 0 min 0 W/m 0,0 km/h (0 Bft) 95,74 %
15.11.2020 01:14 11,9 C 11,1 C 10,0 C 91 % 1011,8 hPa 0,0 l/m 0 min 0 min 0 W/m 0,0 km/h (0 Bft) 97,87 %
15.11.2020 01:16 11,8 C 11,1 C 10,0 C 91 % 1011,8 hPa 0,0 l/m 0 min 0 min 0 W/m 3,2 km/h (1 Bft) 97,87 %
15.11.2020 01:18 11,9 C 11,1 C 10,0 C 91 % 1011,8 hPa 0,0 l/m 0 min 0 min 0 W/m 3,2 km/h (1 Bft) 95,65 %
15.11.2020 01:20 11,8 C 11,1 C 10,0 C 91 % 1011,8 hPa 0,0 l/m 0 min 0 min 0 W/m 0,0 km/h (0 Bft) 97,87 %
15.11.2020 01:22 11,8 C 11,1 C 10,0 C 91 % 1011,8 hPa 0,0 l/m 0 min 0 min 0 W/m 3,2 km/h (1 Bft) 97,87 %
15.11.2020 01:24 11,8 C 11,1 C 10,0 C 91 % 1011,7 hPa 0,0 l/m 0 min 0 min 0 W/m 3,2 km/h (1 Bft) 100,00 %
15.11.2020 01:26 11,8 C 11,1 C 10,0 C 91 % 1011,7 hPa 0,0 l/m 0 min 0 min 0 W/m 0,0 km/h (0 Bft) 100,00 %
15.11.2020 01:28 11,8 C 11,1 C 10,0 C 91 % 1011,6 hPa 0,0 l/m 0 min 0 min 0 W/m 6,4 km/h (2 Bft) 100,00 %
15.11.2020 01:30 11,8 C 11,1 C 10,0 C 91 % 1011,6 hPa 0,0 l/m 0 min 0 min 0 W/m 6,4 km/h (2 Bft) 100,00 %
15.11.2020 01:32 11,8 C 11,1 C 10,0 C 91 % 1011,5 hPa 0,0 l/m 0 min 0 min 0 W/m 6,4 km/h (2 Bft) 97,87 %
15.11.2020 01:34 11,8 C 11,1 C 10,0 C 91 % 1011,6 hPa 0,0 l/m 0 min 0 min 0 W/m 6,4 km/h (2 Bft) 97,87 %
15.11.2020 01:36 11,8 C 11,1 C 10,0 C 91 % 1011,6 hPa 0,0 l/m 0 min 0 min 0 W/m 6,4 km/h (2 Bft) 97,87 %
15.11.2020 01:38 11,8 C 11,1 C 10,0 C 91 % 1011,5 hPa 0,0 l/m 0 min 0 min 0 W/m 6,4 km/h (2 Bft) 100,00 %
15.11.2020 01:40 11,8 C 11,1 C 10,0 C 91 % 1011,5 hPa 0,0 l/m 0 min 0 min 0 W/m 3,2 km/h (1 Bft) 95,74 %
15.11.2020 01:42 11,8 C 11,1 C 10,0 C 91 % 1011,5 hPa 0,0 l/m 0 min 0 min 0 W/m 12,9 km/h (3 Bft) 100,00 %
15.11.2020 01:44 11,8 C 11,1 C 10,0 C 91 % 1011,4 hPa 0,0 l/m 0 min 0 min 0 W/m 6,4 km/h (2 Bft) 97,87 %
15.11.2020 01:46 11,8 C 11,1 C 10,0 C 91 % 1011,5 hPa 0,0 l/m 0 min 0 min 0 W/m 6,4 km/h (2 Bft) 100,00 %
15.11.2020 01:48 11,8 C 11,1 C 10,0 C 91 % 1011,4 hPa 0,0 l/m 0 min 0 min 0 W/m 6,4 km/h (2 Bft) 97,87 %
15.11.2020 01:50 11,8 C 11,1 C 10,0 C 91 % 1011,3 hPa 0,0 l/m 0 min 0 min 0 W/m 0,0 km/h (0 Bft) 97,87 %
15.11.2020 01:52 11,8 C 11,1 C 10,0 C 91 % 1011,3 hPa 0,0 l/m 0 min 0 min 0 W/m 3,2 km/h (1 Bft) 97,87 %
15.11.2020 01:54 11,8 C 11,1 C 10,0 C 91 % 1011,3 hPa 0,0 l/m 0 min 0 min 0 W/m 0,0 km/h (0 Bft) 97,83 %
15.11.2020 01:56 11,8 C 11,1 C 10,0 C 91 % 1011,3 hPa 0,0 l/m 0 min 0 min 0 W/m 0,0 km/h (0 Bft) 95,74 %
15.11.2020 01:58 11,8 C 11,1 C 10,0 C 91 % 1011,4 hPa 0,0 l/m 0 min 0 min 0 W/m 0,0 km/h (0 Bft) 97,87 %
15.11.2020 02:00 11,8 C 11,1 C 10,0 C 91 % 1011,3 hPa 0,0 l/m 0 min 0 min 0 W/m 0,0 km/h (0 Bft) 97,87 %
15.11.2020 02:02 11,8 C 11,1 C 10,0 C 91 % 1011,2 hPa 0,0 l/m 0 min 0 min 0 W/m 6,4 km/h (2 Bft) 97,87 %
15.11.2020 02:04 11,8 C 11,1 C 10,0 C 91 % 1011,1 hPa 0,0 l/m 0 min 0 min 0 W/m 0,0 km/h (0 Bft) 95,65 %
15.11.2020 02:06 11,8 C 11,1 C 10,0 C 91 % 1011,1 hPa 0,0 l/m 0 min 0 min 0 W/m 6,4 km/h (2 Bft) 97,87 %
15.11.2020 02:08 11,8 C 11,1 C 10,0 C 91 % 1011,0 hPa 0,0 l/m 0 min 0 min 0 W/m 0,0 km/h (0 Bft) 95,74 %
15.11.2020 02:10 11,8 C 11,1 C 10,0 C 91 % 1011,0 hPa 0,0 l/m 0 min 0 min 0 W/m 0,0 km/h (0 Bft) 95,74 %
15.11.2020 02:12 11,8 C 11,1 C 10,0 C 91 % 1011,0 hPa 0,0 l/m 0 min 0 min 0 W/m 0,0 km/h (0 Bft) 97,87 %
15.11.2020 02:14 11,8 C 11,1 C 10,0 C 91 % 1011,0 hPa 0,0 l/m 0 min 0 min 0 W/m 0,0 km/h (0 Bft) 93,62 %
15.11.2020 02:16 11,8 C 11,1 C 10,0 C 91 % 1011,0 hPa 0,0 l/m 0 min 0 min 0 W/m 3,2 km/h (1 Bft) 97,83 %
15.11.2020 02:18 11,8 C 11,1 C 10,0 C 92 % 1011,0 hPa 0,0 l/m 0 min 0 min 0 W/m 6,4 km/h (2 Bft) 97,87 %
15.11.2020 02:20 11,8 C 11,1 C 10,6 C 92 % 1011,0 hPa 0,0 l/m 0 min 0 min 0 W/m 0,0 km/h (0 Bft) 97,87 %
15.11.2020 02:22 11,8 C 11,1 C 10,6 C 92 % 1010,9 hPa 0,0 l/m 0 min 0 min 0 W/m 0,0 km/h (0 Bft) 97,87 %
15.11.2020 02:24 11,8 C 11,1 C 10,6 C 92 % 1010,9 hPa 0,0 l/m 0 min 0 min 0 W/m 6,4 km/h (2 Bft) 97,87 %
15.11.2020 02:26 11,8 C 11,7 C 10,6 C 92 % 1011,0 hPa 0,0 l/m 0 min 0 min 0 W/m 19,3 km/h (3 Bft) 95,74 %
15.11.2020 02:28 11,8 C 11,7 C 10,6 C 92 % 1011,0 hPa 0,0 l/m 0 min 0 min 0 W/m 3,2 km/h (1 Bft) 95,65 %
15.11.2020 02:30 11,8 C 11,7 C 10,6 C 92 % 1010,9 hPa 0,0 l/m 0 min 0 min 0 W/m 12,9 km/h (3 Bft) 97,87 %
15.11.2020 02:32 11,9 C 11,7 C 10,6 C 92 % 1011,0 hPa 0,0 l/m 0 min 0 min 0 W/m 6,4 km/h (2 Bft) 97,87 %
15.11.2020 02:34 11,9 C 11,7 C 10,6 C 92 % 1011,0 hPa 0,0 l/m 0 min 0 min 0 W/m 3,2 km/h (1 Bft) 97,87 %
15.11.2020 02:36 11,9 C 11,7 C 10,6 C 92 % 1011,0 hPa 0,0 l/m 0 min 0 min 0 W/m 3,2 km/h (1 Bft) 97,87 %
15.11.2020 02:38 11,9 C 12,2 C 10,6 C 92 % 1011,0 hPa 0,0 l/m 0 min 0 min 0 W/m 0,0 km/h (0 Bft) 97,87 %
15.11.2020 02:40 12,0 C 12,2 C 11,1 C 92 % 1011,0 hPa 0,0 l/m 0 min 0 min 0 W/m 6,4 km/h (2 Bft) 97,83 %
15.11.2020 02:42 12,0 C 12,2 C 11,1 C 92 % 1011,0 hPa 0,0 l/m 0 min 0 min 0 W/m 12,9 km/h (3 Bft) 97,87 %
15.11.2020 02:44 12,0 C 12,2 C 11,1 C 92 % 1011,0 hPa 0,0 l/m 0 min 0 min 0 W/m 12,9 km/h (3 Bft) 95,74 %
15.11.2020 02:46 12,1 C 12,2 C 11,1 C 92 % 1011,0 hPa 0,0 l/m 0 min 0 min 0 W/m 6,4 km/h (2 Bft) 95,74 %
15.11.2020 02:48 12,1 C 12,2 C 11,1 C 91 % 1011,0 hPa 0,0 l/m 0 min 0 min 0 W/m 3,2 km/h (1 Bft) 95,74 %
15.11.2020 02:50 12,2 C 12,2 C 11,1 C 91 % 1011,1 hPa 0,0 l/m 0 min 0 min 0 W/m 6,4 km/h (2 Bft) 97,83 %
15.11.2020 02:52 12,2 C 12,2 C 11,1 C 91 % 1011,1 hPa 0,0 l/m 0 min 0 min 0 W/m 6,4 km/h (2 Bft) 97,96 %
15.11.2020 02:54 12,3 C 12,8 C 11,7 C 91 % 1011,1 hPa 0,0 l/m 0 min 0 min 0 W/m 6,4 km/h (2 Bft) 93,62 %
15.11.2020 02:56 12,3 C 12,8 C 11,7 C 91 % 1011,1 hPa 0,0 l/m 0 min 0 min 0 W/m 16,1 km/h (3 Bft) 97,87 %
15.11.2020 02:58 12,4 C 12,8 C 11,7 C 91 % 1011,0 hPa 0,0 l/m 0 min 0 min 0 W/m 12,9 km/h (3 Bft) 97,87 %
15.11.2020 03:00 12,4 C 12,8 C 11,7 C 91 % 1011,1 hPa 0,0 l/m 0 min 0 min 0 W/m 3,2 km/h (1 Bft) 97,83 %
15.11.2020 03:02 12,5 C 12,8 C 11,7 C 90 % 1011,0 hPa 0,0 l/m 0 min 0 min 0 W/m 16,1 km/h (3 Bft) 97,87 %
15.11.2020 03:04 12,5 C 12,8 C 11,7 C 91 % 1011,0 hPa 0,0 l/m 0 min 0 min 0 W/m 6,4 km/h (2 Bft) 97,87 %
15.11.2020 03:06 12,6 C 12,8 C 11,7 C 90 % 1011,0 hPa 0,0 l/m 0 min 0 min 0 W/m 16,1 km/h (3 Bft) 97,87 %
15.11.2020 03:08 12,6 C 12,8 C 11,7 C 90 % 1011,1 hPa 0,0 l/m 0 min 0 min 0 W/m 16,1 km/h (3 Bft) 97,87 %
15.11.2020 03:10 12,7 C 12,8 C 11,7 C 90 % 1011,1 hPa 0,0 l/m 0 min 0 min 0 W/m 19,3 km/h (3 Bft) 95,74 %
15.11.2020 03:12 12,8 C 12,8 C 11,7 C 90 % 1011,1 hPa 0,0 l/m 0 min 0 min 0 W/m 19,3 km/h (3 Bft) 95,65 %
15.11.2020 03:14 12,8 C 12,8 C 11,7 C 89 % 1011,1 hPa 0,0 l/m 0 min 0 min 0 W/m 19,3 km/h (3 Bft) 97,87 %
15.11.2020 03:16 12,8 C 12,8 C 11,7 C 89 % 1011,1 hPa 0,0 l/m 0 min 0 min 0 W/m 12,9 km/h (3 Bft) 97,87 %
15.11.2020 03:18 12,9 C 12,8 C 11,7 C 89 % 1011,1 hPa 0,0 l/m 0 min 0 min 0 W/m 0,0 km/h (0 Bft) 97,87 %
15.11.2020 03:20 12,9 C 12,8 C 11,7 C 89 % 1011,1 hPa 0,0 l/m 0 min 0 min 0 W/m 19,3 km/h (3 Bft) 95,74 %
15.11.2020 03:22 12,9 C 12,2 C 11,7 C 89 % 1011,1 hPa 0,0 l/m 0 min 0 min 0 W/m 6,4 km/h (2 Bft) 95,74 %
15.11.2020 03:24 12,9 C 12,2 C 11,1 C 89 % 1011,1 hPa 0,0 l/m 0 min 0 min 0 W/m 6,4 km/h (2 Bft) 97,83 %
15.11.2020 03:26 12,9 C 12,2 C 11,1 C 88 % 1011,1 hPa 0,0 l/m 0 min 0 min 0 W/m 6,4 km/h (2 Bft) 97,87 %
15.11.2020 03:28 13,0 C 12,2 C 11,1 C 88 % 1011,1 hPa 0,0 l/m 0 min 0 min 0 W/m 6,4 km/h (2 Bft) 95,74 %
15.11.2020 03:30 13,0 C 12,2 C 11,1 C 88 % 1011,1 hPa 0,0 l/m 0 min 0 min 0 W/m 0,0 km/h (0 Bft) 93,62 %
15.11.2020 03:32 13,0 C 12,2 C 11,1 C 88 % 1011,0 hPa 0,0 l/m 0 min 0 min 0 W/m 3,2 km/h (1 Bft) 95,74 %
15.11.2020 03:34 13,0 C 12,2 C 11,1 C 88 % 1011,0 hPa 0,0 l/m 0 min 0 min 0 W/m 3,2 km/h (1 Bft) 97,87 %
15.11.2020 03:36 13,0 C 12,2 C 11,1 C 88 % 1011,0 hPa 0,0 l/m 0 min 0 min 0 W/m 6,4 km/h (2 Bft) 97,83 %
15.11.2020 03:38 13,0 C 12,2 C 11,1 C 88 % 1011,1 hPa 0,0 l/m 0 min 0 min 0 W/m 3,2 km/h (1 Bft) 97,87 %
15.11.2020 03:40 13,0 C 12,2 C 11,1 C 88 % 1011,0 hPa 0,0 l/m 0 min 0 min 0 W/m 6,4 km/h (2 Bft) 97,87 %
15.11.2020 03:42 13,0 C 12,2 C 11,1 C 88 % 1011,0 hPa 0,0 l/m 0 min 0 min 0 W/m 3,2 km/h (1 Bft) 95,74 %
15.11.2020 03:44 13,0 C 12,2 C 11,1 C 88 % 1011,0 hPa 0,0 l/m 0 min 0 min 0 W/m 0,0 km/h (0 Bft) 97,87 %
15.11.2020 03:46 13,0 C 12,2 C 11,1 C 88 % 1011,0 hPa 0,0 l/m 0 min 0 min 0 W/m 3,2 km/h (1 Bft) 97,87 %
15.11.2020 03:48 13,0 C 12,2 C 11,1 C 88 % 1011,0 hPa 0,0 l/m 0 min 0 min 0 W/m 3,2 km/h (1 Bft) 95,65 %
15.11.2020 03:50 13,0 C 12,2 C 11,1 C 88 % 1011,0 hPa 0,0 l/m 0 min 0 min 0 W/m 3,2 km/h (1 Bft) 97,87 %
15.11.2020 03:52 13,0 C 12,2 C 11,1 C 88 % 1010,9 hPa 0,0 l/m 0 min 0 min 0 W/m 3,2 km/h (1 Bft) 97,87 %
15.11.2020 03:54 13,0 C 12,2 C 11,1 C 88 % 1010,9 hPa 0,0 l/m 0 min 0 min 0 W/m 3,2 km/h (1 Bft) 97,87 %
15.11.2020 03:56 13,0 C 12,2 C 11,1 C 88 % 1010,9 hPa 0,0 l/m 0 min 0 min 0 W/m 6,4 km/h (2 Bft) 97,87 %
15.11.2020 03:58 13,0 C 12,2 C 11,1 C 88 % 1011,0 hPa 0,0 l/m 0 min 0 min 0 W/m 6,4 km/h (2 Bft) 97,83 %
15.11.2020 04:00 13,0 C 12,2 C 11,1 C 88 % 1010,9 hPa 0,0 l/m 0 min 0 min 0 W/m 6,4 km/h (2 Bft) 97,87 %
15.11.2020 04:05 13,0 C 12,8 C 11,7 C 88 % 1010,9 hPa 0,0 l/m 0 min 0 min 0 W/m 6,4 km/h (2 Bft) 97,87 %
15.11.2020 04:06 13,0 C 12,8 C 11,7 C 88 % 1010,9 hPa 0,0 l/m 0 min 0 min 0 W/m 3,2 km/h (1 Bft) 95,65 %
15.11.2020 04:08 13,0 C 12,2 C 11,7 C 88 % 1010,9 hPa 0,0 l/m 0 min 0 min 0 W/m 12,9 km/h (3 Bft) 97,87 %
15.11.2020 04:10 13,0 C 12,2 C 11,7 C 88 % 1010,8 hPa 0,0 l/m 0 min 0 min 0 W/m 3,2 km/h (1 Bft) 97,87 %
15.11.2020 04:12 13,0 C 12,2 C 11,1 C 88 % 1010,8 hPa 0,0 l/m 0 min 0 min 0 W/m 6,4 km/h (2 Bft) 95,65 %
15.11.2020 04:14 13,0 C 12,2 C 11,1 C 88 % 1010,8 hPa 0,0 l/m 0 min 0 min 0 W/m 3,2 km/h (1 Bft) 95,74 %
15.11.2020 04:16 13,0 C 12,2 C 11,1 C 88 % 1010,8 hPa 0,0 l/m 0 min 0 min 0 W/m 0,0 km/h (0 Bft) 97,87 %
15.11.2020 04:18 13,0 C 12,2 C 11,1 C 88 % 1010,8 hPa 0,0 l/m 0 min 0 min 0 W/m 12,9 km/h (3 Bft) 100,00 %
15.11.2020 04:20 13,0 C 12,2 C 11,1 C 87 % 1010,8 hPa 0,0 l/m 0 min 0 min 0 W/m 0,0 km/h (0 Bft) 100,00 %
15.11.2020 04:22 13,0 C 12,2 C 11,1 C 87 % 1010,7 hPa 0,0 l/m 0 min 0 min 0 W/m 3,2 km/h (1 Bft) 100,00 %
15.11.2020 04:24 13,0 C 12,8 C 11,7 C 87 % 1010,8 hPa 0,0 l/m 0 min 0 min 0 W/m 12,9 km/h (3 Bft) 100,00 %
15.11.2020 04:26 13,0 C 12,8 C 11,7 C 87 % 1010,8 hPa 0,0 l/m 0 min 0 min 0 W/m 3,2 km/h (1 Bft) 100,00 %
15.11.2020 04:28 13,0 C 12,8 C 11,7 C 87 % 1010,7 hPa 0,0 l/m 0 min 0 min 0 W/m 6,4 km/h (2 Bft) 100,00 %
15.11.2020 04:30 13,0 C 12,8 C 11,7 C 87 % 1010,8 hPa 0,0 l/m 0 min 0 min 0 W/m 6,4 km/h (2 Bft) 100,00 %
15.11.2020 04:32 13,0 C 12,8 C 11,7 C 87 % 1010,7 hPa 0,0 l/m 0 min 0 min 0 W/m 6,4 km/h (2 Bft) 100,00 %
15.11.2020 04:34 13,0 C 12,8 C 11,7 C 87 % 1010,7 hPa 0,0 l/m 0 min 0 min 0 W/m 0,0 km/h (0 Bft) 100,00 %
15.11.2020 04:36 13,0 C 12,2 C 11,1 C 87 % 1010,7 hPa 0,0 l/m 0 min 0 min 0 W/m 3,2 km/h (1 Bft) 100,00 %
15.11.2020 04:38 13,0 C 12,2 C 11,1 C 87 % 1010,8 hPa 0,0 l/m 0 min 0 min 0 W/m 0,0 km/h (0 Bft) 100,00 %
15.11.2020 04:40 13,0 C 12,2 C 11,1 C 87 % 1010,8 hPa 0,0 l/m 0 min 0 min 0 W/m 3,2 km/h (1 Bft) 100,00 %
15.11.2020 04:42 13,0 C 12,2 C 11,1 C 87 % 1010,7 hPa 0,0 l/m 0 min 0 min 0 W/m 0,0 km/h (0 Bft) 100,00 %
15.11.2020 04:44 13,0 C 12,2 C 11,1 C 88 % 1010,7 hPa 0,0 l/m 0 min 0 min 0 W/m 0,0 km/h (0 Bft) 100,00 %
15.11.2020 04:46 13,0 C 12,2 C 11,1 C 88 % 1010,7 hPa 0,0 l/m 0 min 0 min 0 W/m 3,2 km/h (1 Bft) 100,00 %
15.11.2020 04:48 13,0 C 12,2 C 11,1 C 88 % 1010,7 hPa 0,0 l/m 0 min 0 min 0 W/m 3,2 km/h (1 Bft) 100,00 %
15.11.2020 04:50 13,0 C 12,2 C 11,1 C 88 % 1010,6 hPa 0,0 l/m 0 min 0 min 0 W/m 3,2 km/h (1 Bft) 100,00 %
15.11.2020 04:52 13,0 C 12,2 C 11,1 C 88 % 1010,6 hPa 0,0 l/m 0 min 0 min 0 W/m 3,2 km/h (1 Bft) 100,00 %
15.11.2020 04:54 12,9 C 12,2 C 11,1 C 88 % 1010,5 hPa 0,0 l/m 0 min 0 min 0 W/m 6,4 km/h (2 Bft) 100,00 %
15.11.2020 04:56 12,9 C 12,2 C 11,1 C 88 % 1010,5 hPa 0,0 l/m 0 min 0 min 0 W/m 3,2 km/h (1 Bft) 100,00 %
15.11.2020 04:58 12,9 C 12,2 C 11,1 C 88 % 1010,4 hPa 0,0 l/m 0 min 0 min 0 W/m 0,0 km/h (0 Bft) 100,00 %
15.11.2020 05:00 12,9 C 12,2 C 11,1 C 88 % 1010,4 hPa 0,0 l/m 0 min 0 min 0 W/m 6,4 km/h (2 Bft) 100,00 %
15.11.2020 05:02 12,9 C 12,2 C 11,1 C 88 % 1010,4 hPa 0,0 l/m 0 min 0 min 0 W/m 3,2 km/h (1 Bft) 100,00 %
15.11.2020 05:04 12,9 C 12,2 C 11,1 C 88 % 1010,4 hPa 0,0 l/m 0 min 0 min 0 W/m 19,3 km/h (3 Bft) 100,00 %
15.11.2020 05:06 12,9 C 12,8 C 11,7 C 88 % 1010,3 hPa 0,0 l/m 0 min 0 min 0 W/m 12,9 km/h (3 Bft) 100,00 %
15.11.2020 05:08 12,9 C 12,8 C 11,7 C 88 % 1010,3 hPa 0,0 l/m 0 min 0 min 0 W/m 25,7 km/h (4 Bft) 100,00 %
15.11.2020 05:10 12,9 C 12,8 C 11,7 C 88 % 1010,3 hPa 0,0 l/m 0 min 0 min 0 W/m 12,9 km/h (3 Bft) 100,00 %
15.11.2020 05:12 13,0 C 12,8 C 11,7 C 88 % 1010,3 hPa 0,0 l/m 0 min 0 min 0 W/m 3,2 km/h (1 Bft) 100,00 %
15.11.2020 05:14 13,0 C 12,8 C 11,7 C 88 % 1010,3 hPa 0,0 l/m 0 min 0 min 0 W/m 19,3 km/h (3 Bft) 97,87 %
15.11.2020 05:16 13,0 C 12,2 C 11,7 C 88 % 1010,3 hPa 0,0 l/m 0 min 0 min 0 W/m 6,4 km/h (2 Bft) 100,00 %
15.11.2020 05:18 13,0 C 12,2 C 11,7 C 88 % 1010,3 hPa 0,0 l/m 0 min 0 min 0 W/m 6,4 km/h (2 Bft) 97,87 %
15.11.2020 05:20 13,0 C 12,8 C 11,7 C 88 % 1010,3 hPa 0,0 l/m 0 min 0 min 0 W/m 6,4 km/h (2 Bft) 97,87 %
15.11.2020 05:22 13,0 C 12,8 C 11,7 C 87 % 1010,4 hPa 0,0 l/m 0 min 0 min 0 W/m 3,2 km/h (1 Bft) 97,83 %
15.11.2020 05:24 13,0 C 12,8 C 11,7 C 87 % 1010,4 hPa 0,0 l/m 0 min 0 min 0 W/m 6,4 km/h (2 Bft) 97,87 %
15.11.2020 05:26 13,0 C 12,8 C 11,7 C 87 % 1010,3 hPa 0,0 l/m 0 min 0 min 0 W/m 12,9 km/h (3 Bft) 91,49 %
15.11.2020 05:28 13,0 C 12,8 C 11,7 C 87 % 1010,4 hPa 0,0 l/m 0 min 0 min 0 W/m 12,9 km/h (3 Bft) 95,74 %
15.11.2020 05:30 13,0 C 12,8 C 11,7 C 87 % 1010,4 hPa 0,0 l/m 0 min 0 min 0 W/m 6,4 km/h (2 Bft) 95,74 %
15.11.2020 05:32 13,0 C 12,8 C 11,7 C 87 % 1010,3 hPa 0,0 l/m 0 min 0 min 0 W/m 19,3 km/h (3 Bft) 93,75 %
15.11.2020 05:34 13,1 C 12,8 C 11,7 C 87 % 1010,3 hPa 0,0 l/m 0 min 0 min 0 W/m 6,4 km/h (2 Bft) 95,65 %
15.11.2020 05:36 13,1 C 12,8 C 11,7 C 87 % 1010,3 hPa 0,0 l/m 0 min 0 min 0 W/m 3,2 km/h (1 Bft) 95,74 %
15.11.2020 05:38 13,1 C 12,8 C 11,7 C 87 % 1010,4 hPa 0,0 l/m 0 min 0 min 0 W/m 6,4 km/h (2 Bft) 95,74 %
15.11.2020 05:40 13,1 C 12,8 C 11,7 C 87 % 1010,3 hPa 0,0 l/m 0 min 0 min 0 W/m 16,1 km/h (3 Bft) 95,74 %
15.11.2020 05:42 13,1 C 12,8 C 11,7 C 87 % 1010,4 hPa 0,0 l/m 0 min 0 min 0 W/m 12,9 km/h (3 Bft) 95,74 %
15.11.2020 05:44 13,1 C 12,8 C 11,7 C 87 % 1010,3 hPa 0,0 l/m 0 min 0 min 0 W/m 19,3 km/h (3 Bft) 95,74 %
15.11.2020 05:46 13,1 C 12,8 C 11,7 C 87 % 1010,4 hPa 0,0 l/m 0 min 0 min 0 W/m 16,1 km/h (3 Bft) 95,65 %
15.11.2020 05:48 13,2 C 12,8 C 11,7 C 87 % 1010,4 hPa 0,0 l/m 0 min 0 min 0 W/m 6,4 km/h (2 Bft) 95,74 %
15.11.2020 05:50 13,2 C 12,8 C 11,7 C 87 % 1010,3 hPa 0,0 l/m 0 min 0 min 0 W/m 12,9 km/h (3 Bft) 93,62 %
15.11.2020 05:52 13,2 C 12,8 C 11,7 C 86 % 1010,3 hPa 0,0 l/m 0 min 0 min 0 W/m 19,3 km/h (3 Bft) 95,74 %
15.11.2020 05:54 13,3 C 12,8 C 11,7 C 86 % 1010,3 hPa 0,0 l/m 0 min 0 min 0 W/m 16,1 km/h (3 Bft) 95,74 %
15.11.2020 05:56 13,3 C 12,8 C 11,7 C 86 % 1010,3 hPa 0,0 l/m 0 min 0 min 0 W/m 16,1 km/h (3 Bft) 95,35 %
15.11.2020 05:58 13,3 C 12,8 C 11,7 C 86 % 1010,3 hPa 0,0 l/m 0 min 0 min 0 W/m 9,7 km/h (2 Bft) 93,48 %
15.11.2020 06:00 13,3 C 12,8 C 11,7 C 86 % 1010,3 hPa 0,0 l/m 0 min 0 min 0 W/m 6,4 km/h (2 Bft) 95,74 %
15.11.2020 06:02 13,3 C 12,8 C 11,7 C 86 % 1010,3 hPa 0,0 l/m 0 min 0 min 0 W/m 16,1 km/h (3 Bft) 91,49 %
15.11.2020 06:04 13,3 C 12,8 C 11,7 C 86 % 1010,3 hPa 0,0 l/m 0 min 0 min 0 W/m 16,1 km/h (3 Bft) 95,74 %
15.11.2020 06:08 13,3 C 12,8 C 11,7 C 86 % 1010,2 hPa 0,0 l/m 0 min 0 min 0 W/m 12,9 km/h (3 Bft) 93,62 %
15.11.2020 06:10 13,3 C 12,8 C 11,7 C 86 % 1010,2 hPa 0,0 l/m 0 min 0 min 0 W/m 12,9 km/h (3 Bft) 97,83 %
15.11.2020 06:12 13,3 C 12,8 C 11,7 C 86 % 1010,2 hPa 0,0 l/m 0 min 0 min 0 W/m 0,0 km/h (0 Bft) 97,87 %
15.11.2020 06:14 13,3 C 12,8 C 11,7 C 86 % 1010,2 hPa 0,0 l/m 0 min 0 min 0 W/m 6,4 km/h (2 Bft) 97,87 %
15.11.2020 06:16 13,3 C 12,8 C 11,7 C 86 % 1010,2 hPa 0,0 l/m 0 min 0 min 0 W/m 0,0 km/h (0 Bft) 95,12 %
15.11.2020 06:18 13,3 C 12,2 C 11,1 C 86 % 1010,2 hPa 0,0 l/m 0 min 0 min 0 W/m 3,2 km/h (1 Bft) 96,23 %
15.11.2020 06:20 13,3 C 12,2 C 11,1 C 86 % 1010,2 hPa 0,0 l/m 0 min 0 min 0 W/m 6,4 km/h (2 Bft) 100,00 %
15.11.2020 06:22 13,3 C 12,2 C 11,1 C 86 % 1010,2 hPa 0,0 l/m 0 min 0 min 0 W/m 12,9 km/h (3 Bft) 100,00 %
15.11.2020 06:24 13,3 C 12,2 C 11,1 C 86 % 1010,1 hPa 0,0 l/m 0 min 0 min 0 W/m 6,4 km/h (2 Bft) 95,74 %
15.11.2020 06:26 13,3 C 12,2 C 11,1 C 86 % 1010,1 hPa 0,0 l/m 0 min 0 min 0 W/m 0,0 km/h (0 Bft) 97,87 %
15.11.2020 06:28 13,2 C 12,2 C 11,1 C 86 % 1010,1 hPa 0,0 l/m 0 min 0 min 0 W/m 3,2 km/h (1 Bft) 95,74 %
15.11.2020 06:30 13,2 C 12,2 C 11,1 C 86 % 1010,1 hPa 0,0 l/m 0 min 0 min 0 W/m 3,2 km/h (1 Bft) 95,74 %
15.11.2020 06:32 13,2 C 12,2 C 11,1 C 86 % 1010,1 hPa 0,0 l/m 0 min 0 min 0 W/m 12,9 km/h (3 Bft) 97,83 %
15.11.2020 06:34 13,1 C 12,2 C 11,1 C 86 % 1010,1 hPa 0,0 l/m 0 min 0 min 0 W/m 3,2 km/h (1 Bft) 97,87 %
15.11.2020 06:36 13,1 C 12,2 C 10,6 C 86 % 1010,1 hPa 0,0 l/m 0 min 0 min 0 W/m 0,0 km/h (0 Bft) 95,74 %
15.11.2020 06:38 13,1 C 12,2 C 10,6 C 86 % 1010,1 hPa 0,0 l/m 0 min 0 min 0 W/m 0,0 km/h (0 Bft) 97,87 %
15.11.2020 06:40 13,0 C 11,7 C 10,6 C 86 % 1010,1 hPa 0,0 l/m 0 min 0 min 0 W/m 0,0 km/h (0 Bft) 97,87 %
15.11.2020 06:42 13,0 C 11,7 C 10,6 C 86 % 1010,0 hPa 0,0 l/m 0 min 0 min 0 W/m 9,7 km/h (2 Bft) 97,87 %
15.11.2020 06:44 13,0 C 12,2 C 10,6 C 87 % 1010,1 hPa 0,0 l/m 0 min 0 min 0 W/m 3,2 km/h (1 Bft) 95,74 %
15.11.2020 06:46 12,9 C 12,2 C 10,6 C 87 % 1010,1 hPa 0,0 l/m 0 min 0 min 0 W/m 0,0 km/h (0 Bft) 97,83 %
15.11.2020 06:48 12,9 C 12,2 C 10,6 C 87 % 1010,0 hPa 0,0 l/m 0 min 0 min 0 W/m 0,0 km/h (0 Bft) 97,87 %
15.11.2020 06:50 12,9 C 12,2 C 11,1 C 87 % 1010,0 hPa 0,0 l/m 0 min 0 min 0 W/m 0,0 km/h (0 Bft) 97,87 %
15.11.2020 06:52 12,9 C 12,2 C 11,1 C 87 % 1010,1 hPa 0,0 l/m 0 min 0 min 0 W/m 6,4 km/h (2 Bft) 97,87 %
15.11.2020 06:54 12,9 C 12,2 C 11,1 C 87 % 1010,0 hPa 0,0 l/m 0 min 0 min 0 W/m 3,2 km/h (1 Bft) 93,62 %
15.11.2020 06:56 12,9 C 12,2 C 11,1 C 87 % 1010,0 hPa 0,0 l/m 0 min 0 min 0 W/m 12,9 km/h (3 Bft) 95,65 %
15.11.2020 06:58 12,8 C 12,2 C 11,1 C 87 % 1010,0 hPa 0,0 l/m 0 min 0 min 0 W/m 3,2 km/h (1 Bft) 97,87 %
15.11.2020 07:00 12,8 C 12,2 C 11,1 C 88 % 1010,0 hPa 0,0 l/m 0 min 0 min 0 W/m 16,1 km/h (3 Bft) 97,87 %
15.11.2020 07:02 12,8 C 12,2 C 11,1 C 88 % 1010,0 hPa 0,0 l/m 0 min 0 min 0 W/m 9,7 km/h (2 Bft) 95,74 %
15.11.2020 07:04 12,8 C 12,2 C 11,1 C 88 % 1009,9 hPa 0,0 l/m 0 min 0 min 0 W/m 3,2 km/h (1 Bft) 97,87 %
15.11.2020 07:06 12,8 C 12,2 C 11,1 C 88 % 1009,9 hPa 0,0 l/m 0 min 0 min 0 W/m 6,4 km/h (2 Bft) 97,87 %
15.11.2020 07:08 12,8 C 12,2 C 11,1 C 88 % 1009,9 hPa 0,0 l/m 0 min 0 min 0 W/m 3,2 km/h (1 Bft) 97,83 %
15.11.2020 07:10 12,8 C 12,2 C 11,1 C 88 % 1009,9 hPa 0,0 l/m 0 min 0 min 0 W/m 16,1 km/h (3 Bft) 97,87 %
15.11.2020 07:12 12,8 C 12,2 C 11,1 C 88 % 1009,8 hPa 0,0 l/m 0 min 0 min 0 W/m 6,4 km/h (2 Bft) 97,87 %
15.11.2020 07:14 12,8 C 12,2 C 11,1 C 88 % 1009,8 hPa 0,0 l/m 0 min 0 min 0 W/m 3,2 km/h (1 Bft) 100,00 %
15.11.2020 07:16 12,7 C 12,2 C 11,1 C 88 % 1009,8 hPa 0,0 l/m 0 min 0 min 0 W/m 12,9 km/h (3 Bft) 100,00 %
15.11.2020 07:18 12,7 C 12,2 C 11,1 C 88 % 1009,8 hPa 0,0 l/m 0 min 0 min 0 W/m 6,4 km/h (2 Bft) 100,00 %
15.11.2020 07:20 12,7 C 12,2 C 11,1 C 88 % 1009,7 hPa 0,0 l/m 0 min 0 min 0 W/m 12,9 km/h (3 Bft) 100,00 %
15.11.2020 07:22 12,7 C 12,2 C 11,1 C 88 % 1009,7 hPa 0,0 l/m 0 min 0 min 0 W/m 3,2 km/h (1 Bft) 97,87 %
15.11.2020 07:24 12,7 C 12,2 C 11,1 C 88 % 1009,7 hPa 0,0 l/m 0 min 0 min 0 W/m 3,2 km/h (1 Bft) 97,87 %
15.11.2020 07:26 12,7 C 12,2 C 11,1 C 88 % 1009,6 hPa 0,0 l/m 0 min 0 min 0 W/m 3,2 km/h (1 Bft) 100,00 %
15.11.2020 07:28 12,7 C 12,2 C 11,1 C 88 % 1009,6 hPa 0,0 l/m 0 min 0 min 0 W/m 12,9 km/h (3 Bft) 97,87 %
15.11.2020 07:30 12,7 C 12,2 C 11,1 C 88 % 1009,6 hPa 0,0 l/m 0 min 0 min 0 W/m 3,2 km/h (1 Bft) 97,87 %
15.11.2020 07:32 12,7 C 12,2 C 11,1 C 88 % 1009,5 hPa 0,0 l/m 0 min 0 min 0 W/m 0,0 km/h (0 Bft) 100,00 %
15.11.2020 07:34 12,6 C 11,7 C 11,1 C 88 % 1009,6 hPa 0,0 l/m 0 min 0 min 0 W/m 0,0 km/h (0 Bft) 100,00 %
15.11.2020 07:36 12,6 C 11,7 C 10,6 C 88 % 1009,6 hPa 0,0 l/m 0 min 0 min 0 W/m 0,0 km/h (0 Bft) 100,00 %
15.11.2020 07:38 12,6 C 11,7 C 10,6 C 88 % 1009,5 hPa 0,0 l/m 0 min 0 min 0 W/m 0,0 km/h (0 Bft) 100,00 %
15.11.2020 07:40 12,6 C 11,7 C 10,6 C 89 % 1009,6 hPa 0,0 l/m 0 min 0 min 0 W/m 0,0 km/h (0 Bft) 100,00 %
15.11.2020 07:42 12,6 C 11,7 C 10,6 C 89 % 1009,5 hPa 0,0 l/m 0 min 0 min 0 W/m 0,0 km/h (0 Bft) 97,83 %
15.11.2020 07:46 12,6 C 11,7 C 10,6 C 88 % 1009,5 hPa 0,0 l/m 0 min 0 min 0 W/m 3,2 km/h (1 Bft) 97,92 %
15.11.2020 07:48 12,5 C 11,7 C 10,6 C 88 % 1009,6 hPa 0,0 l/m 0 min 0 min 0 W/m 0,0 km/h (0 Bft) 100,00 %
15.11.2020 07:50 12,5 C 11,7 C 10,6 C 88 % 1009,6 hPa 0,0 l/m 0 min 0 min 0 W/m 0,0 km/h (0 Bft) 100,00 %
15.11.2020 07:52 12,5 C 11,7 C 10,6 C 89 % 1009,4 hPa 0,0 l/m 0 min 0 min 0 W/m 3,2 km/h (1 Bft) 100,00 %
15.11.2020 07:54 12,5 C 11,7 C 10,6 C 89 % 1009,4 hPa 0,0 l/m 0 min 0 min 0 W/m 3,2 km/h (1 Bft) 100,00 %
15.11.2020 07:56 12,5 C 11,7 C 10,6 C 89 % 1009,5 hPa 0,0 l/m 0 min 0 min 0 W/m 3,2 km/h (1 Bft) 100,00 %
15.11.2020 07:58 12,5 C 11,7 C 10,6 C 89 % 1009,5 hPa 0,0 l/m 0 min 0 min 0 W/m 6,4 km/h (2 Bft) 100,00 %
15.11.2020 08:00 12,4 C 11,7 C 10,6 C 89 % 1009,5 hPa 0,0 l/m 0 min 0 min 0 W/m 0,0 km/h (0 Bft) 100,00 %
15.11.2020 08:02 12,4 C 11,7 C 10,6 C 89 % 1009,4 hPa 0,0 l/m 0 min 0 min 4 W/m 3,2 km/h (1 Bft) 97,92 %
15.11.2020 08:04 12,4 C 11,7 C 10,6 C 89 % 1009,4 hPa 0,0 l/m 0 min 0 min 5 W/m 3,2 km/h (1 Bft) 100,00 %
15.11.2020 08:06 12,4 C 11,7 C 10,6 C 89 % 1009,4 hPa 0,0 l/m 0 min 0 min 5 W/m 6,4 km/h (2 Bft) 100,00 %
15.11.2020 08:08 12,4 C 11,7 C 10,6 C 89 % 1009,4 hPa 0,0 l/m 0 min 0 min 7 W/m 0,0 km/h (0 Bft) 93,62 %
15.11.2020 08:10 12,4 C 11,7 C 10,6 C 89 % 1009,4 hPa 0,0 l/m 0 min 0 min 7 W/m 0,0 km/h (0 Bft) 95,74 %
15.11.2020 08:12 12,4 C 11,7 C 10,6 C 89 % 1009,3 hPa 0,0 l/m 0 min 0 min 9 W/m 3,2 km/h (1 Bft) 97,87 %
15.11.2020 08:14 12,3 C 11,7 C 10,6 C 89 % 1009,3 hPa 0,0 l/m 0 min 0 min 11 W/m 0,0 km/h (0 Bft) 97,87 %
15.11.2020 08:16 12,3 C 11,7 C 10,6 C 89 % 1009,2 hPa 0,0 l/m 0 min 0 min 12 W/m 0,0 km/h (0 Bft) 97,83 %
15.11.2020 08:18 12,3 C 11,7 C 10,6 C 89 % 1009,2 hPa 0,0 l/m 0 min 0 min 13 W/m 3,2 km/h (1 Bft) 97,87 %
15.11.2020 08:20 12,3 C 11,7 C 10,6 C 89 % 1009,1 hPa 0,0 l/m 0 min 0 min 17 W/m 3,2 km/h (1 Bft) 97,87 %
15.11.2020 08:22 12,4 C 11,7 C 10,6 C 89 % 1009,1 hPa 0,0 l/m 0 min 0 min 19 W/m 6,4 km/h (2 Bft) 97,87 %
15.11.2020 08:24 12,4 C 12,2 C 11,1 C 89 % 1009,1 hPa 0,0 l/m 0 min 0 min 20 W/m 6,4 km/h (2 Bft) 95,74 %
15.11.2020 08:26 12,4 C 12,2 C 11,1 C 89 % 1009,0 hPa 0,0 l/m 0 min 0 min 22 W/m 6,4 km/h (2 Bft) 97,87 %
15.11.2020 08:28 12,4 C 12,2 C 11,1 C 89 % 1009,0 hPa 0,0 l/m 0 min 0 min 26 W/m 6,4 km/h (2 Bft) 97,83 %
15.11.2020 08:30 12,4 C 12,2 C 11,1 C 89 % 1008,9 hPa 0,0 l/m 0 min 0 min 26 W/m 12,9 km/h (3 Bft) 97,87 %
15.11.2020 08:32 12,4 C 12,2 C 11,1 C 90 % 1008,9 hPa 0,0 l/m 0 min 0 min 26 W/m 3,2 km/h (1 Bft) 97,87 %
15.11.2020 08:34 12,5 C 12,2 C 11,1 C 90 % 1008,8 hPa 0,0 l/m 0 min 0 min 25 W/m 6,4 km/h (2 Bft) 97,87 %
15.11.2020 08:36 12,5 C 12,2 C 11,1 C 90 % 1008,8 hPa 0,0 l/m 0 min 0 min 25 W/m 25,7 km/h (4 Bft) 97,87 %
15.11.2020 08:38 12,5 C 12,2 C 11,1 C 90 % 1008,8 hPa 0,0 l/m 0 min 0 min 23 W/m 3,2 km/h (1 Bft) 97,87 %
15.11.2020 08:40 12,6 C 12,2 C 11,1 C 89 % 1008,7 hPa 0,0 l/m 0 min 0 min 24 W/m 6,4 km/h (2 Bft) 97,83 %
15.11.2020 08:42 12,6 C 12,2 C 11,1 C 89 % 1008,6 hPa 0,0 l/m 0 min 0 min 24 W/m 6,4 km/h (2 Bft) 95,74 %
15.11.2020 08:44 12,6 C 12,2 C 11,1 C 89 % 1008,6 hPa 0,0 l/m 0 min 0 min 24 W/m 3,2 km/h (1 Bft) 97,87 %
15.11.2020 08:46 12,6 C 12,2 C 11,1 C 89 % 1008,6 hPa 0,0 l/m 0 min 0 min 23 W/m 16,1 km/h (3 Bft) 97,87 %
15.11.2020 08:48 12,7 C 12,2 C 11,1 C 89 % 1008,6 hPa 0,0 l/m 0 min 0 min 25 W/m 6,4 km/h (2 Bft) 97,87 %
15.11.2020 08:50 12,7 C 12,2 C 11,7 C 89 % 1008,5 hPa 0,0 l/m 0 min 0 min 25 W/m 16,1 km/h (3 Bft) 95,74 %
15.11.2020 08:52 12,8 C 12,2 C 11,7 C 89 % 1008,5 hPa 0,0 l/m 0 min 0 min 26 W/m 6,4 km/h (2 Bft) 93,48 %
15.11.2020 08:54 12,8 C 12,2 C 11,7 C 89 % 1008,5 hPa 0,0 l/m 0 min 0 min 26 W/m 19,3 km/h (3 Bft) 97,87 %
15.11.2020 08:56 12,8 C 12,2 C 11,7 C 89 % 1008,5 hPa 0,0 l/m 0 min 0 min 27 W/m 16,1 km/h (3 Bft) 97,87 %
15.11.2020 08:58 12,8 C 12,2 C 11,7 C 89 % 1008,4 hPa 0,0 l/m 0 min 0 min 28 W/m 6,4 km/h (2 Bft) 97,87 %
15.11.2020 09:00 12,8 C 12,2 C 11,7 C 89 % 1008,3 hPa 0,0 l/m 0 min 0 min 30 W/m 16,1 km/h (3 Bft) 95,45 %
15.11.2020 09:02 12,9 C 12,2 C 11,7 C 89 % 1008,3 hPa 0,0 l/m 0 min 0 min 32 W/m 6,4 km/h (2 Bft) 95,74 %
15.11.2020 09:04 12,9 C 12,2 C 11,7 C 89 % 1008,3 hPa 0,0 l/m 0 min 0 min 32 W/m 6,4 km/h (2 Bft) 97,83 %
15.11.2020 09:06 12,9 C 12,2 C 11,7 C 89 % 1008,3 hPa 0,0 l/m 0 min 0 min 32 W/m 12,9 km/h (3 Bft) 97,87 %
15.11.2020 09:08 12,9 C 12,2 C 11,7 C 89 % 1008,3 hPa 0,0 l/m 0 min 0 min 32 W/m 16,1 km/h (3 Bft) 97,87 %
15.11.2020 09:10 12,9 C 12,2 C 11,7 C 89 % 1008,3 hPa 0,0 l/m 0 min 0 min 33 W/m 16,1 km/h (3 Bft) 95,74 %
15.11.2020 09:12 12,9 C 12,2 C 11,7 C 89 % 1008,3 hPa 0,0 l/m 0 min 0 min 33 W/m 12,9 km/h (3 Bft) 97,87 %
15.11.2020 09:14 12,9 C 12,2 C 11,7 C 89 % 1008,2 hPa 0,0 l/m 0 min 0 min 33 W/m 22,5 km/h (4 Bft) 97,87 %
15.11.2020 09:16 12,9 C 12,2 C 11,7 C 89 % 1008,3 hPa 0,0 l/m 0 min 0 min 33 W/m 19,3 km/h (3 Bft) 97,83 %
15.11.2020 09:18 12,9 C 12,2 C 11,7 C 89 % 1008,2 hPa 0,0 l/m 0 min 0 min 32 W/m 19,3 km/h (3 Bft) 93,62 %
15.11.2020 09:20 12,9 C 12,2 C 11,7 C 89 % 1008,2 hPa 0,0 l/m 0 min 0 min 33 W/m 16,1 km/h (3 Bft) 91,49 %
15.11.2020 09:22 12,9 C 12,2 C 11,7 C 89 % 1008,1 hPa 0,0 l/m 0 min 0 min 32 W/m 16,1 km/h (3 Bft) 95,74 %
15.11.2020 09:24 12,9 C 12,2 C 11,7 C 89 % 1008,1 hPa 0,0 l/m 0 min 0 min 32 W/m 12,9 km/h (3 Bft) 95,74 %
15.11.2020 09:26 12,9 C 12,2 C 11,7 C 88 % 1008,1 hPa 0,0 l/m 0 min 0 min 33 W/m 35,4 km/h (5 Bft) 95,65 %
15.11.2020 09:28 12,9 C 12,8 C 11,7 C 88 % 1008,1 hPa 0,0 l/m 0 min 0 min 33 W/m 16,1 km/h (3 Bft) 97,87 %
15.11.2020 09:30 12,9 C 12,8 C 11,7 C 88 % 1008,0 hPa 0,0 l/m 0 min 0 min 33 W/m 12,9 km/h (3 Bft) 95,74 %
15.11.2020 09:32 12,9 C 12,8 C 11,7 C 88 % 1008,0 hPa 0,0 l/m 0 min 0 min 33 W/m 12,9 km/h (3 Bft) 93,62 %
15.11.2020 09:34 12,9 C 12,8 C 11,7 C 89 % 1008,1 hPa 0,0 l/m 0 min 0 min 33 W/m 19,3 km/h (3 Bft) 95,74 %
15.11.2020 09:36 13,0 C 12,8 C 11,7 C 89 % 1008,1 hPa 0,0 l/m 0 min 0 min 33 W/m 16,1 km/h (3 Bft) 95,74 %
15.11.2020 09:38 13,0 C 12,8 C 11,7 C 88 % 1008,1 hPa 0,0 l/m 0 min 0 min 32 W/m 16,1 km/h (3 Bft) 93,48 %
15.11.2020 09:40 13,1 C 12,8 C 11,7 C 89 % 1008,0 hPa 0,0 l/m 0 min 0 min 32 W/m 6,4 km/h (2 Bft) 95,74 %
15.11.2020 09:42 13,1 C 12,8 C 11,7 C 89 % 1008,0 hPa 0,0 l/m 0 min 0 min 33 W/m 25,7 km/h (4 Bft) 93,62 %
15.11.2020 09:44 13,1 C 12,8 C 11,7 C 88 % 1007,9 hPa 0,0 l/m 0 min 0 min 34 W/m 3,2 km/h (1 Bft) 93,62 %
15.11.2020 09:46 13,2 C 12,8 C 11,7 C 88 % 1007,9 hPa 0,0 l/m 0 min 0 min 37 W/m 22,5 km/h (4 Bft) 97,87 %
15.11.2020 09:48 13,2 C 12,8 C 11,7 C 88 % 1007,8 hPa 0,0 l/m 0 min 0 min 40 W/m 12,9 km/h (3 Bft) 97,87 %
15.11.2020 09:50 13,3 C 12,8 C 11,7 C 88 % 1007,8 hPa 0,0 l/m 0 min 0 min 44 W/m 16,1 km/h (3 Bft) 97,83 %
15.11.2020 09:52 13,3 C 13,3 C 12,2 C 88 % 1007,9 hPa 0,0 l/m 0 min 0 min 46 W/m 22,5 km/h (4 Bft) 95,74 %
15.11.2020 09:54 13,3 C 13,3 C 12,2 C 88 % 1007,9 hPa 0,0 l/m 0 min 0 min 50 W/m 22,5 km/h (4 Bft) 95,74 %
15.11.2020 09:56 13,4 C 13,3 C 12,2 C 88 % 1007,9 hPa 0,0 l/m 0 min 0 min 52 W/m 6,4 km/h (2 Bft) 97,87 %
15.11.2020 09:58 13,4 C 13,3 C 12,2 C 88 % 1008,0 hPa 0,0 l/m 0 min 0 min 55 W/m 16,1 km/h (3 Bft) 97,87 %
15.11.2020 10:00 13,4 C 13,3 C 12,2 C 88 % 1007,9 hPa 0,0 l/m 0 min 0 min 59 W/m 25,7 km/h (4 Bft) 97,87 %
15.11.2020 10:02 13,5 C 13,9 C 12,2 C 88 % 1008,0 hPa 0,0 l/m 0 min 0 min 60 W/m 22,5 km/h (4 Bft) 95,74 %
15.11.2020 10:04 13,5 C 13,9 C 12,8 C 88 % 1008,0 hPa 0,0 l/m 0 min 0 min 63 W/m 29,0 km/h (5 Bft) 97,87 %
15.11.2020 10:06 13,6 C 13,9 C 12,8 C 88 % 1008,1 hPa 0,0 l/m 0 min 0 min 65 W/m 32,2 km/h (5 Bft) 97,87 %
15.11.2020 10:08 13,7 C 13,9 C 12,8 C 88 % 1008,1 hPa 0,0 l/m 0 min 0 min 65 W/m 6,4 km/h (2 Bft) 97,87 %
15.11.2020 10:10 13,8 C 13,9 C 12,8 C 88 % 1008,1 hPa 0,0 l/m 0 min 0 min 66 W/m 12,9 km/h (3 Bft) 100,00 %
15.11.2020 10:12 13,8 C 13,9 C 12,8 C 87 % 1008,1 hPa 0,0 l/m 0 min 0 min 67 W/m 29,0 km/h (5 Bft) 100,00 %
15.11.2020 10:14 13,9 C 13,9 C 12,8 C 87 % 1008,0 hPa 0,0 l/m 0 min 0 min 66 W/m 32,2 km/h (5 Bft) 100,00 %
15.11.2020 10:16 14,0 C 13,9 C 12,8 C 87 % 1008,0 hPa 0,0 l/m 0 min 0 min 68 W/m 22,5 km/h (4 Bft) 100,00 %
15.11.2020 10:18 14,0 C 13,9 C 12,8 C 86 % 1008,0 hPa 0,0 l/m 0 min 0 min 68 W/m 9,7 km/h (2 Bft) 100,00 %
15.11.2020 10:20 14,0 C 13,9 C 12,8 C 86 % 1008,1 hPa 0,0 l/m 0 min 0 min 67 W/m 19,3 km/h (3 Bft) 100,00 %
15.11.2020 10:22 14,1 C 13,9 C 12,8 C 86 % 1008,0 hPa 0,0 l/m 0 min 0 min 64 W/m 22,5 km/h (4 Bft) 97,87 %
15.11.2020 10:24 14,1 C 13,9 C 12,8 C 86 % 1008,0 hPa 0,0 l/m 0 min 0 min 63 W/m 29,0 km/h (5 Bft) 100,00 %
15.11.2020 10:26 14,2 C 13,9 C 12,8 C 86 % 1008,0 hPa 0,0 l/m 0 min 0 min 64 W/m 32,2 km/h (5 Bft) 100,00 %
15.11.2020 10:28 14,2 C 13,9 C 12,8 C 86 % 1008,0 hPa 0,0 l/m 0 min 0 min 67 W/m 16,1 km/h (3 Bft) 100,00 %
15.11.2020 10:30 14,2 C 13,9 C 12,8 C 86 % 1008,0 hPa 0,0 l/m 0 min 0 min 68 W/m 25,7 km/h (4 Bft) 100,00 %
15.11.2020 10:32 14,2 C 13,9 C 12,8 C 86 % 1008,0 hPa 0,0 l/m 0 min 0 min 68 W/m 29,0 km/h (5 Bft) 100,00 %
15.11.2020 10:34 14,2 C 14,4 C 13,4 C 85 % 1008,0 hPa 0,0 l/m 0 min 0 min 68 W/m 16,1 km/h (3 Bft) 100,00 %
15.11.2020 10:36 14,2 C 14,4 C 13,4 C 85 % 1008,1 hPa 0,0 l/m 0 min 0 min 69 W/m 22,5 km/h (4 Bft) 100,00 %
15.11.2020 10:38 14,2 C 14,4 C 13,4 C 85 % 1008,0 hPa 0,0 l/m 0 min 0 min 70 W/m 9,7 km/h (2 Bft) 100,00 %
15.11.2020 10:40 14,3 C 14,4 C 13,4 C 85 % 1008,0 hPa 0,0 l/m 0 min 0 min 71 W/m 32,2 km/h (5 Bft) 100,00 %
15.11.2020 10:42 14,4 C 14,4 C 13,4 C 85 % 1008,0 hPa 0,0 l/m 0 min 0 min 72 W/m 16,1 km/h (3 Bft) 97,87 %
15.11.2020 10:44 14,4 C 14,4 C 13,4 C 85 % 1008,1 hPa 0,0 l/m 0 min 0 min 73 W/m 29,0 km/h (5 Bft) 95,74 %
15.11.2020 10:46 14,5 C 14,4 C 13,4 C 85 % 1008,0 hPa 0,0 l/m 0 min 0 min 76 W/m 32,2 km/h (5 Bft) 97,87 %
15.11.2020 10:48 14,5 C 14,4 C 13,4 C 85 % 1008,1 hPa 0,0 l/m 0 min 0 min 77 W/m 16,1 km/h (3 Bft) 97,83 %
15.11.2020 10:50 14,5 C 14,4 C 13,4 C 85 % 1008,1 hPa 0,0 l/m 0 min 0 min 80 W/m 22,5 km/h (4 Bft) 100,00 %
15.11.2020 10:52 14,6 C 15,0 C 13,4 C 85 % 1008,2 hPa 0,0 l/m 0 min 0 min 83 W/m 12,9 km/h (3 Bft) 97,87 %
15.11.2020 10:54 14,6 C 14,4 C 13,4 C 85 % 1008,1 hPa 0,0 l/m 0 min 0 min 86 W/m 29,0 km/h (5 Bft) 97,87 %
15.11.2020 10:56 14,7 C 15,0 C 13,4 C 85 % 1008,0 hPa 0,0 l/m 0 min 0 min 91 W/m 29,0 km/h (5 Bft) 97,87 %
15.11.2020 10:58 14,8 C 15,0 C 13,4 C 84 % 1007,9 hPa 0,0 l/m 0 min 0 min 95 W/m 12,9 km/h (3 Bft) 95,74 %
15.11.2020 11:00 14,8 C 15,0 C 13,9 C 84 % 1007,8 hPa 0,0 l/m 0 min 0 min 96 W/m 22,5 km/h (4 Bft) 97,83 %
15.11.2020 11:02 14,8 C 15,0 C 13,9 C 84 % 1007,9 hPa 0,0 l/m 0 min 0 min 92 W/m 25,7 km/h (4 Bft) 96,00 %
15.11.2020 11:04 14,8 C 15,6 C 13,9 C 84 % 1007,8 hPa 0,0 l/m 0 min 0 min 109 W/m 12,9 km/h (3 Bft) 97,87 %
15.11.2020 11:06 14,9 C 16,1 C 13,9 C 84 % 1007,8 hPa 0,0 l/m 2 min 0 min 167 W/m 19,3 km/h (3 Bft) 97,87 %
15.11.2020 11:08 14,9 C 16,1 C 13,4 C 84 % 1007,8 hPa 0,0 l/m 2 min 0 min 210 W/m 29,0 km/h (5 Bft) 97,87 %
15.11.2020 11:10 14,9 C 16,7 C 13,4 C 84 % 1007,9 hPa 0,0 l/m 2 min 0 min 187 W/m 19,3 km/h (3 Bft) 97,83 %
15.11.2020 11:12 15,0 C 16,7 C 13,9 C 84 % 1007,9 hPa 0,0 l/m 2 min 0 min 219 W/m 22,5 km/h (4 Bft) 95,74 %
15.11.2020 11:14 15,0 C 17,2 C 13,9 C 84 % 1007,8 hPa 0,0 l/m 2 min 0 min 256 W/m 25,7 km/h (4 Bft) 97,87 %
15.11.2020 11:16 15,1 C 18,3 C 13,9 C 83 % 1007,7 hPa 0,0 l/m 2 min 0 min 321 W/m 19,3 km/h (3 Bft) 97,87 %
15.11.2020 11:18 15,1 C 18,3 C 13,9 C 83 % 1007,6 hPa 0,0 l/m 2 min 0 min 327 W/m 25,7 km/h (4 Bft) 95,74 %
15.11.2020 11:20 15,3 C 18,3 C 14,5 C 83 % 1007,5 hPa 0,0 l/m 2 min 0 min 260 W/m 25,7 km/h (4 Bft) 97,87 %
15.11.2020 11:22 15,3 C 17,2 C 14,5 C 83 % 1007,3 hPa 0,0 l/m 2 min 0 min 215 W/m 22,5 km/h (4 Bft) 97,83 %
15.11.2020 11:24 15,4 C 17,8 C 14,5 C 83 % 1007,2 hPa 0,0 l/m 2 min 0 min 233 W/m 16,1 km/h (3 Bft) 97,87 %
15.11.2020 11:26 15,4 C 18,3 C 14,5 C 83 % 1007,2 hPa 0,0 l/m 2 min 0 min 289 W/m 16,1 km/h (3 Bft) 100,00 %
15.11.2020 11:28 15,5 C 18,9 C 15,0 C 83 % 1007,2 hPa 0,0 l/m 2 min 0 min 345 W/m 22,5 km/h (4 Bft) 100,00 %
15.11.2020 11:30 15,5 C 18,9 C 15,0 C 82 % 1007,1 hPa 0,0 l/m 2 min 0 min 318 W/m 19,3 km/h (3 Bft) 100,00 %
15.11.2020 11:32 15,6 C 17,8 C 15,0 C 82 % 1007,0 hPa 0,0 l/m 2 min 0 min 242 W/m 19,3 km/h (3 Bft) 100,00 %
15.11.2020 11:34 15,6 C 17,8 C 15,0 C 82 % 1007,0 hPa 0,0 l/m 2 min 0 min 235 W/m 16,1 km/h (3 Bft) 100,00 %
15.11.2020 11:36 15,6 C 17,2 C 15,6 C 82 % 1007,1 hPa 0,0 l/m 2 min 0 min 228 W/m 22,5 km/h (4 Bft) 100,00 %
15.11.2020 11:38 15,6 C 16,7 C 15,6 C 82 % 1007,1 hPa 0,0 l/m 0 min 0 min 166 W/m 19,3 km/h (3 Bft) 100,00 %
15.11.2020 11:40 15,6 C 16,7 C 15,6 C 82 % 1007,0 hPa 0,0 l/m 2 min 0 min 205 W/m 16,1 km/h (3 Bft) 100,00 %
15.11.2020 11:42 15,6 C 16,7 C 16,1 C 82 % 1006,9 hPa 0,0 l/m 2 min 0 min 232 W/m 19,3 km/h (3 Bft) 100,00 %
15.11.2020 11:44 15,6 C 16,7 C 16,1 C 82 % 1007,0 hPa 0,0 l/m 2 min 0 min 210 W/m 22,5 km/h (4 Bft) 100,00 %
15.11.2020 11:46 15,5 C 16,7 C 16,7 C 81 % 1007,0 hPa 0,0 l/m 2 min 0 min 236 W/m 16,1 km/h (3 Bft) 100,00 %
15.11.2020 11:48 15,6 C 16,7 C 16,7 C 81 % 1007,0 hPa 0,0 l/m 2 min 0 min 235 W/m 29,0 km/h (5 Bft) 100,00 %
15.11.2020 11:50 15,6 C 16,1 C 15,6 C 82 % 1006,9 hPa 0,0 l/m 0 min 0 min 166 W/m 12,9 km/h (3 Bft) 100,00 %
15.11.2020 11:52 15,6 C 15,6 C 15,0 C 82 % 1006,8 hPa 0,0 l/m 0 min 0 min 156 W/m 22,5 km/h (4 Bft) 97,87 %
15.11.2020 11:54 15,5 C 16,1 C 15,0 C 81 % 1006,9 hPa 0,0 l/m 2 min 0 min 178 W/m 19,3 km/h (3 Bft) 97,87 %
15.11.2020 11:56 15,5 C 15,6 C 15,0 C 81 % 1006,9 hPa 0,0 l/m 0 min 0 min 156 W/m 19,3 km/h (3 Bft) 97,83 %
15.11.2020 11:58 15,5 C 15,6 C 14,5 C 81 % 1006,9 hPa 0,0 l/m 0 min 0 min 141 W/m 19,3 km/h (3 Bft) 97,87 %
15.11.2020 12:00 15,5 C 15,0 C 14,5 C 81 % 1006,8 hPa 0,0 l/m 0 min 0 min 140 W/m 16,1 km/h (3 Bft) 95,74 %
15.11.2020 12:02 15,5 C 15,0 C 14,5 C 82 % 1006,8 hPa 0,0 l/m 0 min 0 min 134 W/m 16,1 km/h (3 Bft) 97,87 %
15.11.2020 12:04 15,4 C 15,0 C 14,5 C 82 % 1006,8 hPa 0,0 l/m 0 min 0 min 135 W/m 22,5 km/h (4 Bft) 97,87 %
15.11.2020 12:08 15,4 C 15,0 C 14,5 C 82 % 1006,7 hPa 0,0 l/m 0 min 0 min 130 W/m 25,7 km/h (4 Bft) 97,85 %
15.11.2020 12:10 15,4 C 15,0 C 14,5 C 82 % 1006,7 hPa 0,0 l/m 0 min 0 min 131 W/m 32,2 km/h (5 Bft) 97,87 %
15.11.2020 12:12 15,4 C 15,0 C 14,5 C 82 % 1006,6 hPa 0,0 l/m 0 min 0 min 130 W/m 9,7 km/h (2 Bft) 97,87 %
15.11.2020 12:14 15,3 C 15,0 C 14,5 C 82 % 1006,6 hPa 0,0 l/m 0 min 0 min 129 W/m 19,3 km/h (3 Bft) 97,87 %
15.11.2020 12:16 15,3 C 15,0 C 14,5 C 82 % 1006,4 hPa 0,0 l/m 0 min 0 min 138 W/m 16,1 km/h (3 Bft) 97,87 %
15.11.2020 12:18 15,3 C 15,0 C 14,5 C 82 % 1006,4 hPa 0,0 l/m 0 min 0 min 130 W/m 19,3 km/h (3 Bft) 97,87 %
15.11.2020 12:20 15,3 C 15,0 C 14,5 C 82 % 1006,2 hPa 0,0 l/m 0 min 0 min 126 W/m 6,4 km/h (2 Bft) 95,65 %
15.11.2020 12:22 15,3 C 15,0 C 14,5 C 82 % 1006,2 hPa 0,0 l/m 0 min 0 min 112 W/m 12,9 km/h (3 Bft) 97,87 %
15.11.2020 12:24 15,3 C 15,0 C 13,9 C 82 % 1006,0 hPa 0,0 l/m 0 min 0 min 102 W/m 12,9 km/h (3 Bft) 97,87 %
15.11.2020 12:26 15,2 C 15,6 C 14,5 C 82 % 1005,9 hPa 0,0 l/m 0 min 0 min 134 W/m 16,1 km/h (3 Bft) 97,87 %
15.11.2020 12:28 15,2 C 16,7 C 15,6 C 83 % 1005,9 hPa 0,0 l/m 2 min 0 min 188 W/m 6,4 km/h (2 Bft) 97,87 %
15.11.2020 12:30 15,2 C 18,3 C 17,8 C 83 % 1005,9 hPa 0,0 l/m 2 min 0 min 331 W/m 19,3 km/h (3 Bft) 97,87 %
15.11.2020 12:32 15,3 C 17,8 C 17,8 C 83 % 1005,8 hPa 0,0 l/m 2 min 0 min 390 W/m 25,7 km/h (4 Bft) 97,83 %
15.11.2020 12:34 15,3 C 17,2 C 16,7 C 83 % 1005,8 hPa 0,0 l/m 2 min 0 min 292 W/m 25,7 km/h (4 Bft) 93,62 %
15.11.2020 12:36 15,4 C 17,2 C 17,2 C 83 % 1005,8 hPa 0,0 l/m 2 min 0 min 201 W/m 19,3 km/h (3 Bft) 95,74 %
15.11.2020 12:38 15,4 C 17,2 C 17,2 C 83 % 1005,9 hPa 0,0 l/m 2 min 0 min 323 W/m 25,7 km/h (4 Bft) 97,87 %
15.11.2020 12:40 15,4 C 16,7 C 17,2 C 83 % 1005,9 hPa 0,0 l/m 2 min 0 min 298 W/m 32,2 km/h (5 Bft) 100,00 %
15.11.2020 12:42 15,5 C 16,1 C 16,1 C 82 % 1005,8 hPa 0,0 l/m 0 min 0 min 162 W/m 25,7 km/h (4 Bft) 100,00 %
15.11.2020 12:44 15,5 C 15,6 C 15,0 C 82 % 1005,7 hPa 0,0 l/m 0 min 0 min 120 W/m 19,3 km/h (3 Bft) 97,87 %
15.11.2020 12:46 15,5 C 15,6 C 15,0 C 82 % 1005,6 hPa 0,0 l/m 0 min 0 min 117 W/m 19,3 km/h (3 Bft) 95,74 %
15.11.2020 12:48 15,5 C 15,0 C 14,5 C 82 % 1005,5 hPa 0,0 l/m 0 min 0 min 122 W/m 16,1 km/h (3 Bft) 95,74 %
15.11.2020 12:50 15,4 C 15,6 C 14,5 C 82 % 1005,5 hPa 0,0 l/m 0 min 0 min 136 W/m 12,9 km/h (3 Bft) 97,87 %
15.11.2020 12:52 15,4 C 15,6 C 14,5 C 82 % 1005,5 hPa 0,0 l/m 0 min 0 min 151 W/m 35,4 km/h (5 Bft) 95,74 %
15.11.2020 12:54 15,4 C 15,6 C 14,5 C 82 % 1005,3 hPa 0,0 l/m 0 min 0 min 146 W/m 19,3 km/h (3 Bft) 97,83 %
15.11.2020 12:56 15,4 C 16,7 C 15,6 C 82 % 1005,3 hPa 0,0 l/m 2 min 0 min 227 W/m 3,2 km/h (1 Bft) 97,87 %
15.11.2020 12:58 15,4 C 15,6 C 15,6 C 82 % 1005,4 hPa 0,0 l/m 0 min 0 min 152 W/m 12,9 km/h (3 Bft) 95,74 %
15.11.2020 13:00 15,4 C 15,6 C 15,0 C 82 % 1005,2 hPa 0,0 l/m 0 min 0 min 110 W/m 12,9 km/h (3 Bft) 97,87 %
15.11.2020 13:02 15,4 C 15,0 C 14,5 C 82 % 1005,2 hPa 0,0 l/m 0 min 0 min 95 W/m 12,9 km/h (3 Bft) 97,87 %
15.11.2020 13:04 15,4 C 15,0 C 14,5 C 82 % 1005,1 hPa 0,0 l/m 0 min 0 min 79 W/m 16,1 km/h (3 Bft) 97,87 %
15.11.2020 13:06 15,4 C 15,0 C 13,9 C 82 % 1005,1 hPa 0,0 l/m 0 min 0 min 72 W/m 29,0 km/h (5 Bft) 95,65 %
15.11.2020 13:08 15,4 C 14,4 C 13,9 C 82 % 1005,0 hPa 0,0 l/m 0 min 0 min 69 W/m 19,3 km/h (3 Bft) 91,49 %
15.11.2020 13:10 15,4 C 14,4 C 13,9 C 82 % 1004,9 hPa 0,0 l/m 0 min 0 min 66 W/m 12,9 km/h (3 Bft) 95,74 %
15.11.2020 13:12 15,4 C 14,4 C 13,9 C 82 % 1004,8 hPa 0,0 l/m 0 min 0 min 57 W/m 16,1 km/h (3 Bft) 95,74 %
15.11.2020 13:14 15,3 C 14,4 C 13,9 C 82 % 1004,7 hPa 0,0 l/m 0 min 0 min 56 W/m 12,9 km/h (3 Bft) 95,74 %
15.11.2020 13:16 15,3 C 14,4 C 13,4 C 83 % 1004,8 hPa 0,0 l/m 0 min 0 min 66 W/m 22,5 km/h (4 Bft) 95,74 %
15.11.2020 13:18 15,3 C 14,4 C 13,9 C 83 % 1004,8 hPa 0,0 l/m 0 min 0 min 72 W/m 25,7 km/h (4 Bft) 93,48 %
15.11.2020 13:20 15,3 C 14,4 C 13,9 C 82 % 1004,8 hPa 0,0 l/m 0 min 0 min 75 W/m 16,1 km/h (3 Bft) 93,62 %
15.11.2020 13:22 15,3 C 14,4 C 13,9 C 83 % 1004,6 hPa 0,0 l/m 0 min 0 min 76 W/m 29,0 km/h (5 Bft) 95,74 %
15.11.2020 13:24 15,3 C 14,4 C 13,9 C 83 % 1004,5 hPa 0,0 l/m 0 min 0 min 74 W/m 9,7 km/h (2 Bft) 93,62 %
15.11.2020 13:26 15,3 C 14,4 C 13,9 C 83 % 1004,4 hPa 0,0 l/m 0 min 0 min 75 W/m 16,1 km/h (3 Bft) 95,74 %
15.11.2020 13:28 15,3 C 14,4 C 13,9 C 83 % 1004,4 hPa 0,0 l/m 0 min 0 min 77 W/m 19,3 km/h (3 Bft) 95,74 %
15.11.2020 13:30 15,2 C 15,0 C 13,9 C 83 % 1004,3 hPa 0,0 l/m 0 min 0 min 82 W/m 25,7 km/h (4 Bft) 95,74 %
15.11.2020 13:32 15,2 C 15,0 C 13,9 C 82 % 1004,3 hPa 0,0 l/m 0 min 0 min 84 W/m 16,1 km/h (3 Bft) 93,48 %
15.11.2020 13:34 15,3 C 15,0 C 13,9 C 82 % 1004,2 hPa 0,0 l/m 0 min 0 min 88 W/m 12,9 km/h (3 Bft) 95,74 %
15.11.2020 13:36 15,3 C 15,0 C 13,9 C 82 % 1004,2 hPa 0,0 l/m 0 min 0 min 103 W/m 19,3 km/h (3 Bft) 93,62 %
15.11.2020 13:38 15,3 C 15,0 C 13,9 C 82 % 1004,0 hPa 0,0 l/m 0 min 0 min 111 W/m 12,9 km/h (3 Bft) 95,74 %
15.11.2020 13:40 15,3 C 15,0 C 13,9 C 82 % 1004,0 hPa 0,0 l/m 0 min 0 min 107 W/m 16,1 km/h (3 Bft) 95,65 %
15.11.2020 13:42 15,4 C 15,0 C 13,9 C 82 % 1004,0 hPa 0,0 l/m 0 min 0 min 101 W/m 25,7 km/h (4 Bft) 97,87 %
15.11.2020 13:44 15,4 C 15,0 C 13,9 C 82 % 1003,9 hPa 0,0 l/m 0 min 0 min 86 W/m 9,7 km/h (2 Bft) 97,87 %
15.11.2020 13:46 15,4 C 15,0 C 13,9 C 82 % 1003,8 hPa 0,0 l/m 0 min 0 min 75 W/m 12,9 km/h (3 Bft) 97,87 %
15.11.2020 13:48 15,4 C 15,0 C 13,9 C 82 % 1003,8 hPa 0,0 l/m 0 min 0 min 70 W/m 19,3 km/h (3 Bft) 97,87 %
15.11.2020 13:50 15,4 C 15,0 C 13,9 C 82 % 1003,7 hPa 0,0 l/m 0 min 0 min 70 W/m 16,1 km/h (3 Bft) 97,87 %
15.11.2020 13:52 15,4 C 15,0 C 13,9 C 82 % 1003,7 hPa 0,0 l/m 0 min 0 min 69 W/m 16,1 km/h (3 Bft) 95,65 %
15.11.2020 13:54 15,4 C 15,0 C 13,9 C 82 % 1003,7 hPa 0,0 l/m 0 min 0 min 68 W/m 22,5 km/h (4 Bft) 100,00 %
15.11.2020 13:56 15,4 C 15,0 C 13,9 C 82 % 1003,8 hPa 0,0 l/m 0 min 0 min 67 W/m 19,3 km/h (3 Bft) 100,00 %
15.11.2020 13:58 15,4 C 15,0 C 13,9 C 81 % 1003,7 hPa 0,0 l/m 0 min 0 min 64 W/m 22,5 km/h (4 Bft) 100,00 %
15.11.2020 14:00 15,5 C 15,0 C 13,9 C 81 % 1003,6 hPa 0,0 l/m 0 min 0 min 62 W/m 29,0 km/h (5 Bft) 100,00 %
15.11.2020 14:02 15,5 C 15,0 C 13,9 C 81 % 1003,6 hPa 0,0 l/m 0 min 0 min 56 W/m 9,7 km/h (2 Bft) 100,00 %
15.11.2020 14:04 15,5 C 15,0 C 13,9 C 81 % 1003,6 hPa 0,0 l/m 0 min 0 min 53 W/m 32,2 km/h (5 Bft) 100,00 %
15.11.2020 14:06 15,5 C 15,0 C 13,9 C 81 % 1003,6 hPa 0,0 l/m 0 min 0 min 49 W/m 12,9 km/h (3 Bft) 100,00 %
15.11.2020 14:08 15,5 C 15,0 C 13,9 C 81 % 1003,5 hPa 0,0 l/m 0 min 0 min 46 W/m 19,3 km/h (3 Bft) 100,00 %
15.11.2020 14:10 15,5 C 15,0 C 13,9 C 81 % 1003,5 hPa 0,0 l/m 0 min 0 min 44 W/m 19,3 km/h (3 Bft) 100,00 %
15.11.2020 14:12 15,5 C 15,0 C 13,9 C 81 % 1003,4 hPa 0,0 l/m 0 min 0 min 42 W/m 25,7 km/h (4 Bft) 100,00 %
15.11.2020 14:14 15,5 C 15,0 C 13,9 C 81 % 1003,4 hPa 0,0 l/m 0 min 0 min 40 W/m 16,1 km/h (3 Bft) 100,00 %
15.11.2020 14:16 15,5 C 15,0 C 13,9 C 81 % 1003,4 hPa 0,0 l/m 0 min 0 min 41 W/m 22,5 km/h (4 Bft) 100,00 %
15.11.2020 14:18 15,5 C 15,0 C 13,9 C 81 % 1003,4 hPa 0,0 l/m 0 min 0 min 42 W/m 16,1 km/h (3 Bft) 100,00 %
15.11.2020 14:20 15,5 C 15,0 C 13,9 C 81 % 1003,3 hPa 0,0 l/m 0 min 0 min 41 W/m 25,7 km/h (4 Bft) 100,00 %
15.11.2020 14:22 15,5 C 15,0 C 13,9 C 81 % 1003,4 hPa 0,0 l/m 0 min 0 min 40 W/m 19,3 km/h (3 Bft) 100,00 %
15.11.2020 14:24 15,5 C 15,0 C 13,9 C 81 % 1003,3 hPa 0,0 l/m 0 min 0 min 40 W/m 16,1 km/h (3 Bft) 100,00 %
15.11.2020 14:26 15,5 C 15,0 C 13,9 C 81 % 1003,3 hPa 0,0 l/m 0 min 0 min 38 W/m 32,2 km/h (5 Bft) 97,87 %
15.11.2020 14:28 15,5 C 15,0 C 13,9 C 81 % 1003,2 hPa 0,0 l/m 0 min 0 min 31 W/m 12,9 km/h (3 Bft) 100,00 %
15.11.2020 14:30 15,5 C 15,0 C 13,9 C 81 % 1003,3 hPa 0,0 l/m 0 min 0 min 26 W/m 32,2 km/h (5 Bft) 100,00 %
15.11.2020 14:32 15,5 C 15,0 C 13,9 C 81 % 1003,3 hPa 0,0 l/m 0 min 0 min 24 W/m 19,3 km/h (3 Bft) 100,00 %
15.11.2020 14:34 15,5 C 15,0 C 13,9 C 81 % 1003,3 hPa 0,0 l/m 0 min 0 min 23 W/m 22,5 km/h (4 Bft) 100,00 %
15.11.2020 14:36 15,5 C 15,0 C 13,9 C 81 % 1003,3 hPa 0,0 l/m 0 min 0 min 25 W/m 19,3 km/h (3 Bft) 100,00 %
15.11.2020 14:38 15,6 C 15,0 C 13,9 C 81 % 1003,3 hPa 0,0 l/m 0 min 0 min 26 W/m 19,3 km/h (3 Bft) 97,87 %
15.11.2020 14:40 15,6 C 15,0 C 13,9 C 81 % 1003,3 hPa 0,0 l/m 0 min 0 min 26 W/m 25,7 km/h (4 Bft) 100,00 %
15.11.2020 14:42 15,6 C 15,0 C 13,4 C 81 % 1003,3 hPa 0,0 l/m 0 min 0 min 25 W/m 6,4 km/h (2 Bft) 97,87 %
15.11.2020 14:44 15,6 C 15,0 C 13,4 C 81 % 1003,3 hPa 0,0 l/m 0 min 0 min 22 W/m 9,7 km/h (2 Bft) 100,00 %
15.11.2020 14:46 15,5 C 15,0 C 13,4 C 81 % 1003,3 hPa 0,0 l/m 0 min 0 min 21 W/m 19,3 km/h (3 Bft) 95,74 %
15.11.2020 14:48 15,5 C 15,0 C 13,4 C 81 % 1003,2 hPa 0,0 l/m 0 min 0 min 21 W/m 25,7 km/h (4 Bft) 100,00 %
15.11.2020 14:50 15,5 C 15,0 C 13,4 C 81 % 1003,2 hPa 0,0 l/m 0 min 0 min 23 W/m 12,9 km/h (3 Bft) 100,00 %
15.11.2020 14:52 15,5 C 15,0 C 13,4 C 81 % 1003,2 hPa 0,0 l/m 0 min 0 min 23 W/m 16,1 km/h (3 Bft) 100,00 %
15.11.2020 14:54 15,5 C 15,0 C 13,4 C 81 % 1003,2 hPa 0,0 l/m 0 min 0 min 23 W/m 22,5 km/h (4 Bft) 100,00 %
15.11.2020 14:56 15,5 C 15,0 C 13,4 C 81 % 1003,3 hPa 0,0 l/m 0 min 0 min 24 W/m 19,3 km/h (3 Bft) 100,00 %
15.11.2020 14:58 15,5 C 15,0 C 13,4 C 81 % 1003,3 hPa 0,0 l/m 0 min 0 min 25 W/m 12,9 km/h (3 Bft) 100,00 %
15.11.2020 15:00 15,5 C 15,0 C 13,4 C 81 % 1003,2 hPa 0,0 l/m 0 min 0 min 26 W/m 9,7 km/h (2 Bft) 100,00 %
15.11.2020 15:02 15,5 C 15,0 C 13,4 C 81 % 1003,3 hPa 0,0 l/m 0 min 0 min 27 W/m 6,4 km/h (2 Bft) 95,74 %
15.11.2020 15:04 15,5 C 15,0 C 13,4 C 81 % 1003,2 hPa 0,0 l/m 0 min 0 min 28 W/m 19,3 km/h (3 Bft) 97,83 %
15.11.2020 15:06 15,5 C 15,0 C 13,4 C 81 % 1003,2 hPa 0,0 l/m 0 min 0 min 26 W/m 16,1 km/h (3 Bft) 97,87 %
15.11.2020 15:08 15,5 C 15,0 C 13,9 C 81 % 1003,2 hPa 0,0 l/m 0 min 0 min 24 W/m 19,3 km/h (3 Bft) 97,96 %
15.11.2020 15:10 15,6 C 15,0 C 13,9 C 80 % 1003,1 hPa 0,0 l/m 0 min 0 min 19 W/m 16,1 km/h (3 Bft) 100,00 %
15.11.2020 15:12 15,6 C 15,6 C 13,9 C 80 % 1003,1 hPa 0,0 l/m 0 min 0 min 16 W/m 22,5 km/h (4 Bft) 94,92 %
15.11.2020 15:14 15,6 C 15,6 C 13,9 C 79 % 1003,1 hPa 0,0 l/m 0 min 0 min 16 W/m 16,1 km/h (3 Bft) 97,83 %
15.11.2020 15:16 15,6 C 15,6 C 13,9 C 79 % 1003,1 hPa 0,0 l/m 0 min 0 min 14 W/m 22,5 km/h (4 Bft) 97,87 %
15.11.2020 15:18 15,7 C 15,6 C 13,9 C 79 % 1003,1 hPa 0,0 l/m 0 min 0 min 11 W/m 29,0 km/h (5 Bft) 97,87 %
15.11.2020 15:20 15,8 C 15,6 C 14,5 C 78 % 1003,1 hPa 0,0 l/m 0 min 0 min 10 W/m 35,4 km/h (5 Bft) 97,87 %
15.11.2020 15:22 15,8 C 15,6 C 14,5 C 78 % 1003,1 hPa 0,0 l/m 0 min 0 min 9 W/m 38,6 km/h (5 Bft) 97,87 %
15.11.2020 15:24 15,9 C 15,6 C 14,5 C 77 % 1003,1 hPa 0,0 l/m 0 min 0 min 7 W/m 16,1 km/h (3 Bft) 97,87 %
15.11.2020 15:26 15,9 C 15,6 C 14,5 C 77 % 1003,1 hPa 0,0 l/m 0 min 0 min 7 W/m 19,3 km/h (3 Bft) 95,65 %
15.11.2020 15:28 16,0 C 15,6 C 14,5 C 77 % 1003,1 hPa 0,0 l/m 0 min 0 min 7 W/m 38,6 km/h (5 Bft) 95,74 %
15.11.2020 15:30 16,1 C 16,1 C 14,5 C 77 % 1003,2 hPa 0,0 l/m 0 min 0 min 7 W/m 29,0 km/h (5 Bft) 97,87 %
15.11.2020 15:32 16,1 C 16,1 C 14,5 C 76 % 1003,1 hPa 0,0 l/m 0 min 0 min 7 W/m 32,2 km/h (5 Bft) 97,87 %
15.11.2020 15:34 16,2 C 16,1 C 14,5 C 76 % 1003,1 hPa 0,0 l/m 0 min 0 min 6 W/m 25,7 km/h (4 Bft) 97,87 %
15.11.2020 15:36 16,3 C 15,6 C 14,5 C 76 % 1003,1 hPa 0,0 l/m 0 min 0 min 5 W/m 32,2 km/h (5 Bft) 97,87 %
15.11.2020 15:38 16,3 C 16,1 C 14,5 C 76 % 1003,1 hPa 0,0 l/m 0 min 2 min 5 W/m 41,8 km/h (6 Bft) 97,83 %
15.11.2020 15:40 16,4 C 15,6 C 14,5 C 76 % 1003,1 hPa 0,0 l/m 0 min 0 min 5 W/m 38,6 km/h (5 Bft) 93,62 %
15.11.2020 15:42 16,4 C 16,1 C 14,5 C 76 % 1003,0 hPa 0,0 l/m 0 min 0 min 5 W/m 29,0 km/h (5 Bft) 97,62 %
15.11.2020 15:44 16,5 C 15,6 C 14,5 C 76 % 1003,0 hPa 0,0 l/m 0 min 0 min 5 W/m 29,0 km/h (5 Bft) 97,92 %
15.11.2020 15:46 16,5 C 15,6 C 13,4 C 76 % 1002,9 hPa 0,0 l/m 0 min 0 min 5 W/m 35,4 km/h (5 Bft) 95,92 %
15.11.2020 15:48 16,5 C 15,6 C 13,4 C 76 % 1002,9 hPa 0,0 l/m 0 min 0 min 5 W/m 22,5 km/h (4 Bft) 93,62 %
15.11.2020 15:50 16,5 C 15,6 C 13,4 C 76 % 1002,9 hPa 0,0 l/m 0 min 0 min 5 W/m 32,2 km/h (5 Bft) 91,67 %
15.11.2020 15:52 16,5 C 15,6 C 13,4 C 76 % 1002,8 hPa 0,0 l/m 0 min 0 min 5 W/m 38,6 km/h (5 Bft) 95,74 %
15.11.2020 15:54 16,5 C 15,6 C 13,9 C 76 % 1002,7 hPa 0,0 l/m 0 min 0 min 5 W/m 25,7 km/h (4 Bft) 93,62 %
15.11.2020 15:56 16,5 C 15,6 C 13,9 C 76 % 1002,7 hPa 0,0 l/m 0 min 0 min 5 W/m 32,2 km/h (5 Bft) 95,24 %
15.11.2020 15:58 16,5 C 15,6 C 13,9 C 76 % 1002,6 hPa 0,0 l/m 0 min 0 min 5 W/m 12,9 km/h (3 Bft) 93,62 %
15.11.2020 16:00 16,5 C 15,6 C 13,9 C 76 % 1002,6 hPa 0,0 l/m 0 min 0 min 5 W/m 25,7 km/h (4 Bft) 95,92 %
15.11.2020 16:02 16,5 C 15,6 C 14,5 C 75 % 1002,5 hPa 0,0 l/m 0 min 0 min 1 W/m 29,0 km/h (5 Bft) 91,30 %
15.11.2020 16:04 16,5 C 15,6 C 14,5 C 75 % 1002,5 hPa 0,0 l/m 0 min 0 min 5 W/m 22,5 km/h (4 Bft) 95,92 %
15.11.2020 16:06 16,5 C 15,6 C 14,5 C 75 % 1002,4 hPa 0,0 l/m 0 min 0 min 1 W/m 25,7 km/h (4 Bft) 95,83 %
15.11.2020 16:08 16,5 C 15,6 C 14,5 C 75 % 1002,5 hPa 0,0 l/m 0 min 0 min 0 W/m 22,5 km/h (4 Bft) 95,12 %
15.11.2020 16:10 16,5 C 15,6 C 13,9 C 75 % 1002,4 hPa 0,0 l/m 0 min 2 min 0 W/m 29,0 km/h (5 Bft) 95,83 %
15.11.2020 16:12 16,5 C 15,0 C 13,9 C 75 % 1002,4 hPa 0,0 l/m 0 min 0 min 0 W/m 29,0 km/h (5 Bft) 91,67 %
15.11.2020 16:14 16,5 C 15,6 C 13,9 C 76 % 1002,5 hPa 0,0 l/m 0 min 2 min 0 W/m 32,2 km/h (5 Bft) 93,48 %
15.11.2020 16:16 16,5 C 15,0 C 13,4 C 76 % 1002,5 hPa 0,0 l/m 0 min 2 min 0 W/m 29,0 km/h (5 Bft) 97,92 %
15.11.2020 16:18 16,5 C 13,9 C 12,2 C 77 % 1002,5 hPa 0,0 l/m 0 min 2 min 0 W/m 32,2 km/h (5 Bft) 95,83 %
15.11.2020 16:20 16,4 C 13,9 C 12,2 C 77 % 1002,6 hPa 0,0 l/m 0 min 2 min 0 W/m 32,2 km/h (5 Bft) 95,83 %
15.11.2020 16:22 16,4 C 13,3 C 11,7 C 78 % 1002,5 hPa 0,0 l/m 0 min 2 min 0 W/m 19,3 km/h (3 Bft) 94,44 %
15.11.2020 16:24 16,4 C 12,8 C 11,7 C 78 % 1002,5 hPa 0,0 l/m 0 min 2 min 0 W/m 25,7 km/h (4 Bft) 96,55 %
15.11.2020 16:26 16,3 C 12,8 C 11,7 C 79 % 1002,5 hPa 0,0 l/m 0 min 2 min 0 W/m 22,5 km/h (4 Bft) 95,74 %
15.11.2020 16:28 16,3 C 13,3 C 11,7 C 79 % 1002,4 hPa 0,0 l/m 0 min 2 min 0 W/m 38,6 km/h (5 Bft) 95,74 %
15.11.2020 16:30 16,2 C 13,9 C 11,7 C 79 % 1002,5 hPa 0,0 l/m 0 min 2 min 0 W/m 35,4 km/h (5 Bft) 95,12 %
15.11.2020 16:32 16,1 C 13,9 C 11,7 C 79 % 1002,4 hPa 0,0 l/m 0 min 2 min 0 W/m 38,6 km/h (5 Bft) 98,00 %
15.11.2020 16:34 16,1 C 13,9 C 11,7 C 79 % 1002,4 hPa 0,0 l/m 0 min 2 min 0 W/m 25,7 km/h (4 Bft) 97,96 %
15.11.2020 16:36 16,0 C 13,3 C 11,7 C 80 % 1002,3 hPa 0,0 l/m 0 min 2 min 0 W/m 19,3 km/h (3 Bft) 97,87 %
15.11.2020 16:38 16,0 C 12,8 C 11,7 C 80 % 1002,4 hPa 0,2 l/m 0 min 2 min 0 W/m 38,6 km/h (5 Bft) 97,87 %
15.11.2020 16:40 16,0 C 12,8 C 11,1 C 80 % 1002,3 hPa 0,0 l/m 0 min 2 min 0 W/m 29,0 km/h (5 Bft) 95,74 %
15.11.2020 16:42 15,9 C 12,8 C 11,1 C 80 % 1002,2 hPa 0,0 l/m 0 min 2 min 0 W/m 29,0 km/h (5 Bft) 93,62 %
15.11.2020 16:44 15,9 C 12,8 C 11,1 C 81 % 1002,4 hPa 0,0 l/m 0 min 2 min 0 W/m 25,7 km/h (4 Bft) 100,00 %
15.11.2020 16:46 15,9 C 12,8 C 11,1 C 81 % 1002,2 hPa 0,0 l/m 0 min 2 min 0 W/m 22,5 km/h (4 Bft) 100,00 %
15.11.2020 16:48 15,8 C 12,2 C 11,1 C 81 % 1002,1 hPa 0,0 l/m 0 min 2 min 0 W/m 22,5 km/h (4 Bft) 100,00 %
15.11.2020 16:50 15,8 C 12,2 C 11,1 C 82 % 1002,3 hPa 0,0 l/m 0 min 2 min 0 W/m 32,2 km/h (5 Bft) 100,00 %
15.11.2020 16:52 15,7 C 12,2 C 11,1 C 82 % 1001,9 hPa 0,0 l/m 0 min 2 min 0 W/m 35,4 km/h (5 Bft) 100,00 %
15.11.2020 16:54 15,6 C 12,2 C 11,1 C 82 % 1002,1 hPa 0,0 l/m 0 min 2 min 0 W/m 16,1 km/h (3 Bft) 97,87 %
15.11.2020 16:56 15,6 C 12,2 C 11,1 C 82 % 1001,9 hPa 0,0 l/m 0 min 2 min 0 W/m 16,1 km/h (3 Bft) 97,87 %
15.11.2020 16:58 15,5 C 12,2 C 11,1 C 82 % 1002,1 hPa 0,0 l/m 0 min 2 min 0 W/m 22,5 km/h (4 Bft) 100,00 %
15.11.2020 17:00 15,5 C 12,2 C 11,1 C 83 % 1001,8 hPa 0,2 l/m 0 min 2 min 0 W/m 25,7 km/h (4 Bft) 100,00 %
15.11.2020 17:02 15,5 C 12,2 C 11,1 C 83 % 1001,9 hPa 0,0 l/m 0 min 2 min 0 W/m 19,3 km/h (3 Bft) 100,00 %
15.11.2020 17:04 15,4 C 12,8 C 11,1 C 83 % 1001,9 hPa 0,0 l/m 0 min 2 min 0 W/m 29,0 km/h (5 Bft) 100,00 %
15.11.2020 17:06 15,4 C 12,2 C 11,1 C 83 % 1001,8 hPa 0,0 l/m 0 min 2 min 0 W/m 22,5 km/h (4 Bft) 100,00 %
15.11.2020 17:08 15,4 C 12,2 C 11,1 C 83 % 1001,8 hPa 0,0 l/m 0 min 2 min 0 W/m 12,9 km/h (3 Bft) 100,00 %
15.11.2020 17:10 15,3 C 12,2 C 11,1 C 83 % 1001,7 hPa 0,0 l/m 0 min 2 min 0 W/m 57,9 km/h (7 Bft) 100,00 %
15.11.2020 17:12 15,3 C 12,8 C 11,1 C 83 % 1001,7 hPa 0,0 l/m 0 min 2 min 0 W/m 38,6 km/h (5 Bft) 100,00 %
15.11.2020 17:14 15,3 C 12,8 C 11,1 C 83 % 1001,5 hPa 0,0 l/m 0 min 2 min 0 W/m 32,2 km/h (5 Bft) 100,00 %
15.11.2020 17:16 15,3 C 12,8 C 11,1 C 83 % 1001,6 hPa 0,0 l/m 0 min 2 min 0 W/m 29,0 km/h (5 Bft) 100,00 %
15.11.2020 17:18 15,3 C 12,8 C 11,7 C 83 % 1001,4 hPa 0,0 l/m 0 min 2 min 0 W/m 61,2 km/h (7 Bft) 100,00 %
15.11.2020 17:20 15,4 C 12,8 C 11,7 C 83 % 1001,4 hPa 0,0 l/m 0 min 2 min 0 W/m 35,4 km/h (5 Bft) 97,87 %
15.11.2020 17:22 15,4 C 12,8 C 11,1 C 83 % 1001,3 hPa 0,0 l/m 0 min 2 min 0 W/m 35,4 km/h (5 Bft) 100,00 %
15.11.2020 17:24 15,4 C 12,8 C 11,7 C 83 % 1001,3 hPa 0,0 l/m 0 min 2 min 0 W/m 25,7 km/h (4 Bft) 100,00 %
15.11.2020 17:26 15,4 C 12,8 C 11,7 C 83 % 1001,3 hPa 0,0 l/m 0 min 2 min 0 W/m 35,4 km/h (5 Bft) 100,00 %
15.11.2020 17:28 15,4 C 12,8 C 11,7 C 83 % 1001,3 hPa 0,0 l/m 0 min 2 min 0 W/m 35,4 km/h (5 Bft) 100,00 %
15.11.2020 17:30 15,4 C 12,8 C 11,7 C 83 % 1001,3 hPa 0,0 l/m 0 min 2 min 0 W/m 41,8 km/h (6 Bft) 100,00 %
15.11.2020 17:32 15,4 C 12,8 C 11,7 C 83 % 1001,2 hPa 0,0 l/m 0 min 2 min 0 W/m 22,5 km/h (4 Bft) 97,87 %
15.11.2020 17:34 15,4 C 12,8 C 11,7 C 83 % 1001,3 hPa 0,0 l/m 0 min 2 min 0 W/m 41,8 km/h (6 Bft) 97,83 %
15.11.2020 17:36 15,3 C 12,8 C 11,7 C 84 % 1001,2 hPa 0,0 l/m 0 min 2 min 0 W/m 25,7 km/h (4 Bft) 100,00 %
15.11.2020 17:38 15,3 C 12,8 C 11,1 C 84 % 1001,1 hPa 0,0 l/m 0 min 2 min 0 W/m 22,5 km/h (4 Bft) 97,87 %
15.11.2020 17:40 15,3 C 12,8 C 11,1 C 84 % 1001,0 hPa 0,0 l/m 0 min 2 min 0 W/m 12,9 km/h (3 Bft) 100,00 %
15.11.2020 17:42 15,3 C 12,8 C 11,1 C 84 % 1000,9 hPa 0,2 l/m 0 min 2 min 0 W/m 25,7 km/h (4 Bft) 100,00 %
15.11.2020 17:44 15,2 C 12,8 C 11,1 C 85 % 1000,9 hPa 0,0 l/m 0 min 2 min 0 W/m 38,6 km/h (5 Bft) 100,00 %
15.11.2020 17:46 15,2 C 12,8 C 11,1 C 85 % 1000,8 hPa 0,0 l/m 0 min 2 min 0 W/m 32,2 km/h (5 Bft) 100,00 %
15.11.2020 17:48 15,1 C 13,3 C 11,1 C 85 % 1001,0 hPa 0,0 l/m 0 min 2 min 0 W/m 41,8 km/h (6 Bft) 97,87 %
15.11.2020 17:50 15,1 C 13,3 C 11,1 C 85 % 1001,0 hPa 0,0 l/m 0 min 2 min 0 W/m 45,1 km/h (6 Bft) 100,00 %
15.11.2020 17:52 15,1 C 13,3 C 11,7 C 85 % 1000,9 hPa 0,0 l/m 0 min 2 min 0 W/m 25,7 km/h (4 Bft) 100,00 %
15.11.2020 17:54 15,1 C 13,3 C 11,7 C 85 % 1000,8 hPa 0,0 l/m 0 min 2 min 0 W/m 32,2 km/h (5 Bft) 100,00 %
15.11.2020 17:56 15,1 C 13,9 C 11,7 C 85 % 1000,9 hPa 0,0 l/m 0 min 2 min 0 W/m 38,6 km/h (5 Bft) 100,00 %
15.11.2020 17:58 15,1 C 13,9 C 11,7 C 85 % 1000,8 hPa 0,0 l/m 0 min 2 min 0 W/m 35,4 km/h (5 Bft) 97,83 %
15.11.2020 18:00 15,1 C 13,9 C 11,7 C 85 % 1000,8 hPa 0,0 l/m 0 min 0 min 0 W/m 29,0 km/h (5 Bft) 100,00 %
15.11.2020 18:02 15,1 C 14,4 C 11,7 C 85 % 1000,7 hPa 0,0 l/m 0 min 0 min 0 W/m 32,2 km/h (5 Bft) 100,00 %
15.11.2020 18:04 15,1 C 14,4 C 11,7 C 85 % 1000,7 hPa 0,0 l/m 0 min 0 min 0 W/m 38,6 km/h (5 Bft) 100,00 %
15.11.2020 18:08 15,1 C 14,4 C 11,7 C 85 % 1000,6 hPa 0,0 l/m 0 min 0 min 0 W/m 48,3 km/h (6 Bft) 100,00 %
15.11.2020 18:10 15,1 C 14,4 C 11,7 C 85 % 1000,6 hPa 0,0 l/m 0 min 0 min 0 W/m 35,4 km/h (5 Bft) 100,00 %
15.11.2020 18:12 15,2 C 14,4 C 12,2 C 84 % 1000,6 hPa 0,0 l/m 0 min 0 min 0 W/m 22,5 km/h (4 Bft) 100,00 %
15.11.2020 18:14 15,2 C 14,4 C 12,2 C 84 % 1000,6 hPa 0,0 l/m 0 min 0 min 0 W/m 35,4 km/h (5 Bft) 97,87 %
15.11.2020 18:16 15,2 C 14,4 C 12,2 C 84 % 1000,7 hPa 0,0 l/m 0 min 0 min 0 W/m 35,4 km/h (5 Bft) 100,00 %
15.11.2020 18:18 15,3 C 14,4 C 12,2 C 84 % 1000,6 hPa 0,0 l/m 0 min 0 min 0 W/m 54,7 km/h (7 Bft) 97,37 %
15.11.2020 18:20 15,3 C 14,4 C 12,8 C 84 % 1000,5 hPa 0,0 l/m 0 min 0 min 0 W/m 35,4 km/h (5 Bft) 100,00 %
15.11.2020 18:22 15,3 C 14,4 C 12,8 C 84 % 1000,6 hPa 0,0 l/m 0 min 0 min 0 W/m 32,2 km/h (5 Bft) 100,00 %
15.11.2020 18:24 15,3 C 14,4 C 12,8 C 84 % 1000,5 hPa 0,0 l/m 0 min 0 min 0 W/m 38,6 km/h (5 Bft) 100,00 %
15.11.2020 18:26 15,3 C 14,4 C 12,8 C 84 % 1000,5 hPa 0,0 l/m 0 min 0 min 0 W/m 41,8 km/h (6 Bft) 97,87 %
15.11.2020 18:28 15,3 C 14,4 C 12,8 C 84 % 1000,7 hPa 0,0 l/m 0 min 0 min 0 W/m 38,6 km/h (5 Bft) 97,87 %
15.11.2020 18:30 15,4 C 14,4 C 12,8 C 84 % 1000,7 hPa 0,0 l/m 0 min 0 min 0 W/m 45,1 km/h (6 Bft) 100,00 %
15.11.2020 18:32 15,4 C 12,8 C 12,2 C 84 % 1000,7 hPa 0,0 l/m 0 min 2 min 0 W/m 48,3 km/h (6 Bft) 97,87 %
15.11.2020 18:34 15,3 C 12,2 C 11,7 C 85 % 1000,9 hPa 0,0 l/m 0 min 2 min 0 W/m 38,6 km/h (5 Bft) 95,65 %
15.11.2020 18:36 15,3 C 12,2 C 11,7 C 86 % 1001,0 hPa 0,4 l/m 0 min 2 min 0 W/m 35,4 km/h (5 Bft) 97,87 %
15.11.2020 18:38 15,2 C 12,2 C 11,1 C 86 % 1001,2 hPa 0,6 l/m 0 min 2 min 0 W/m 45,1 km/h (6 Bft) 95,74 %
15.11.2020 18:40 15,0 C 12,2 C 11,1 C 88 % 1001,3 hPa 0,8 l/m 0 min 2 min 0 W/m 45,1 km/h (6 Bft) 95,74 %
15.11.2020 18:42 14,9 C 12,2 C 11,1 C 89 % 1001,2 hPa 0,8 l/m 0 min 2 min 0 W/m 48,3 km/h (6 Bft) 89,36 %
15.11.2020 18:44 14,7 C 12,2 C 11,1 C 89 % 1001,3 hPa 1,0 l/m 0 min 2 min 0 W/m 48,3 km/h (6 Bft) 93,62 %
15.11.2020 18:46 14,5 C 12,2 C 11,1 C 90 % 1001,6 hPa 0,4 l/m 0 min 2 min 0 W/m 48,3 km/h (6 Bft) 93,48 %
15.11.2020 18:48 14,4 C 11,7 C 11,1 C 91 % 1001,7 hPa 0,4 l/m 0 min 2 min 0 W/m 61,2 km/h (7 Bft) 93,62 %
15.11.2020 18:50 14,2 C 11,7 C 11,1 C 91 % 1001,4 hPa 0,4 l/m 0 min 2 min 0 W/m 64,4 km/h (8 Bft) 91,84 %
15.11.2020 18:52 14,1 C 11,7 C 11,1 C 91 % 1001,6 hPa 0,2 l/m 0 min 2 min 0 W/m 67,6 km/h (8 Bft) 93,62 %
15.11.2020 18:54 14,0 C 11,7 C 11,1 C 92 % 1001,5 hPa 0,2 l/m 0 min 2 min 0 W/m 45,1 km/h (6 Bft) 93,62 %
15.11.2020 18:56 13,9 C 11,7 C 11,1 C 92 % 1001,4 hPa 0,2 l/m 0 min 2 min 0 W/m 74,0 km/h (8 Bft) 93,48 %
15.11.2020 18:58 13,8 C 11,7 C 11,1 C 92 % 1001,4 hPa 0,2 l/m 0 min 2 min 0 W/m 54,7 km/h (7 Bft) 91,49 %
15.11.2020 19:00 13,6 C 11,7 C 10,6 C 92 % 1001,6 hPa 0,2 l/m 0 min 2 min 0 W/m 64,4 km/h (8 Bft) 93,62 %
15.11.2020 19:02 13,5 C 11,7 C 10,6 C 92 % 1001,4 hPa 0,2 l/m 0 min 2 min 0 W/m 61,2 km/h (7 Bft) 91,67 %
15.11.2020 19:04 13,4 C 11,7 C 10,6 C 93 % 1001,6 hPa 0,0 l/m 0 min 2 min 0 W/m 51,5 km/h (7 Bft) 93,62 %
15.11.2020 19:06 13,4 C 11,7 C 10,6 C 93 % 1002,0 hPa 0,0 l/m 0 min 2 min 0 W/m 54,7 km/h (7 Bft) 89,36 %
15.11.2020 19:08 13,3 C 11,1 C 10,6 C 93 % 1001,9 hPa 0,2 l/m 0 min 2 min 0 W/m 57,9 km/h (7 Bft) 93,48 %
15.11.2020 19:10 13,3 C 11,7 C 10,6 C 93 % 1002,1 hPa 0,2 l/m 0 min 2 min 0 W/m 45,1 km/h (6 Bft) 93,62 %
15.11.2020 19:12 13,2 C 11,1 C 10,6 C 93 % 1002,3 hPa 0,0 l/m 0 min 2 min 0 W/m 41,8 km/h (6 Bft) 89,36 %
15.11.2020 19:14 13,1 C 11,1 C 10,6 C 94 % 1002,4 hPa 0,2 l/m 0 min 2 min 0 W/m 61,2 km/h (7 Bft) 93,62 %
15.11.2020 19:16 13,1 C 11,1 C 10,6 C 94 % 1002,7 hPa 0,4 l/m 0 min 2 min 0 W/m 54,7 km/h (7 Bft) 93,62 %
15.11.2020 19:18 13,0 C 11,1 C 10,6 C 94 % 1002,7 hPa 0,0 l/m 0 min 2 min 0 W/m 22,5 km/h (4 Bft) 52,17 %
15.11.2020 19:20 12,7 C 9,4 C 9,5 C 93 % 1002,7 hPa 0,2 l/m 0 min 2 min 0 W/m 45,1 km/h (6 Bft) 95,65 %
15.11.2020 19:22 12,3 C 8,9 C 8,4 C 91 % 1002,7 hPa 0,0 l/m 0 min 2 min 0 W/m 45,1 km/h (6 Bft) 91,49 %
15.11.2020 19:24 12,0 C 8,9 C 8,4 C 89 % 1002,8 hPa 0,0 l/m 0 min 2 min 0 W/m 35,4 km/h (5 Bft) 91,49 %
15.11.2020 19:26 11,8 C 8,9 C 8,4 C 88 % 1002,8 hPa 0,0 l/m 0 min 2 min 0 W/m 29,0 km/h (5 Bft) 95,74 %
15.11.2020 19:28 11,6 C 8,9 C 8,4 C 88 % 1002,8 hPa 0,0 l/m 0 min 2 min 0 W/m 22,5 km/h (4 Bft) 97,87 %
15.11.2020 19:30 11,4 C 8,3 C 7,8 C 88 % 1002,8 hPa 0,0 l/m 0 min 2 min 0 W/m 25,7 km/h (4 Bft) 97,87 %
15.11.2020 19:32 11,3 C 8,3 C 7,8 C 88 % 1002,7 hPa 0,2 l/m 0 min 2 min 0 W/m 38,6 km/h (5 Bft) 97,83 %
15.11.2020 19:34 11,2 C 8,9 C 7,8 C 88 % 1002,8 hPa 0,0 l/m 0 min 2 min 0 W/m 19,3 km/h (3 Bft) 97,87 %
15.11.2020 19:36 11,1 C 8,3 C 7,8 C 88 % 1002,7 hPa 0,0 l/m 0 min 2 min 0 W/m 32,2 km/h (5 Bft) 97,87 %
15.11.2020 19:38 11,0 C 8,3 C 7,8 C 87 % 1002,8 hPa 0,0 l/m 0 min 2 min 0 W/m 16,1 km/h (3 Bft) 100,00 %
15.11.2020 19:40 10,9 C 8,3 C 7,8 C 88 % 1002,7 hPa 0,2 l/m 0 min 2 min 0 W/m 19,3 km/h (3 Bft) 100,00 %
15.11.2020 19:42 10,9 C 8,3 C 7,8 C 88 % 1002,8 hPa 0,0 l/m 0 min 2 min 0 W/m 38,6 km/h (5 Bft) 100,00 %
15.11.2020 19:44 10,8 C 8,3 C 7,8 C 88 % 1002,9 hPa 0,0 l/m 0 min 2 min 0 W/m 22,5 km/h (4 Bft) 100,00 %
15.11.2020 19:46 10,8 C 8,3 C 7,8 C 88 % 1003,0 hPa 0,0 l/m 0 min 2 min 0 W/m 12,9 km/h (3 Bft) 97,87 %
15.11.2020 19:48 10,7 C 8,3 C 7,8 C 88 % 1003,0 hPa 0,2 l/m 0 min 2 min 0 W/m 19,3 km/h (3 Bft) 100,00 %
15.11.2020 19:50 10,6 C 8,3 C 7,8 C 88 % 1003,1 hPa 0,0 l/m 0 min 2 min 0 W/m 16,1 km/h (3 Bft) 100,00 %
15.11.2020 19:52 10,6 C 8,3 C 7,8 C 89 % 1002,9 hPa 0,0 l/m 0 min 0 min 0 W/m 16,1 km/h (3 Bft) 100,00 %
15.11.2020 19:54 10,5 C 8,3 C 7,8 C 89 % 1002,9 hPa 0,0 l/m 0 min 0 min 0 W/m 16,1 km/h (3 Bft) 100,00 %
15.11.2020 19:56 10,5 C 8,3 C 7,8 C 89 % 1002,9 hPa 0,0 l/m 0 min 0 min 0 W/m 25,7 km/h (4 Bft) 97,87 %
15.11.2020 19:58 10,4 C 8,3 C 7,8 C 89 % 1003,0 hPa 0,0 l/m 0 min 0 min 0 W/m 12,9 km/h (3 Bft) 97,87 %
15.11.2020 20:00 10,4 C 8,3 C 7,8 C 89 % 1003,1 hPa 0,0 l/m 0 min 0 min 0 W/m 16,1 km/h (3 Bft) 100,00 %
15.11.2020 20:02 10,3 C 8,3 C 7,8 C 89 % 1003,2 hPa 0,0 l/m 0 min 0 min 0 W/m 32,2 km/h (5 Bft) 100,00 %
15.11.2020 20:04 10,3 C 8,9 C 7,8 C 89 % 1003,0 hPa 0,0 l/m 0 min 0 min 0 W/m 29,0 km/h (5 Bft) 100,00 %
15.11.2020 20:06 10,3 C 8,9 C 7,8 C 89 % 1002,9 hPa 0,0 l/m 0 min 0 min 0 W/m 19,3 km/h (3 Bft) 97,83 %
15.11.2020 20:08 10,2 C 8,9 C 7,8 C 89 % 1002,9 hPa 0,0 l/m 0 min 0 min 0 W/m 25,7 km/h (4 Bft) 100,00 %
15.11.2020 20:10 10,1 C 8,9 C 7,8 C 89 % 1003,1 hPa 0,0 l/m 0 min 0 min 0 W/m 35,4 km/h (5 Bft) 100,00 %
15.11.2020 20:12 10,1 C 8,9 C 7,8 C 89 % 1003,2 hPa 0,0 l/m 0 min 0 min 0 W/m 48,3 km/h (6 Bft) 97,87 %
15.11.2020 20:14 10,1 C 8,9 C 7,8 C 88 % 1003,2 hPa 0,0 l/m 0 min 0 min 0 W/m 29,0 km/h (5 Bft) 100,00 %
15.11.2020 20:16 10,1 C 8,9 C 7,8 C 88 % 1003,2 hPa 0,0 l/m 0 min 0 min 0 W/m 54,7 km/h (7 Bft) 100,00 %
15.11.2020 20:18 10,1 C 8,9 C 7,8 C 88 % 1003,3 hPa 0,0 l/m 0 min 0 min 0 W/m 41,8 km/h (6 Bft) 100,00 %
15.11.2020 20:20 10,1 C 8,9 C 7,8 C 88 % 1003,2 hPa 0,0 l/m 0 min 0 min 0 W/m 32,2 km/h (5 Bft) 100,00 %
15.11.2020 20:22 10,1 C 8,9 C 7,8 C 88 % 1003,3 hPa 0,0 l/m 0 min 0 min 0 W/m 38,6 km/h (5 Bft) 100,00 %
15.11.2020 20:24 10,1 C 9,4 C 7,8 C 88 % 1003,3 hPa 0,0 l/m 0 min 0 min 0 W/m 29,0 km/h (5 Bft) 100,00 %
15.11.2020 20:26 10,1 C 9,4 C 7,8 C 88 % 1003,3 hPa 0,0 l/m 0 min 0 min 0 W/m 29,0 km/h (5 Bft) 100,00 %
15.11.2020 20:27 10,1 C 9,4 C 7,8 C 88 % 1003,4 hPa 0,0 l/m 0 min 0 min 0 W/m 25,7 km/h (4 Bft) 100,00 %
15.11.2020 20:30 10,1 C 9,4 C 7,8 C 88 % 1003,4 hPa 0,0 l/m 0 min 0 min 0 W/m 19,3 km/h (3 Bft) 100,00 %
15.11.2020 20:32 10,1 C 9,4 C 7,8 C 88 % 1003,3 hPa 0,0 l/m 0 min 0 min 0 W/m 22,5 km/h (4 Bft) 97,56 %
15.11.2020 20:34 10,1 C 9,4 C 7,8 C 88 % 1003,3 hPa 0,0 l/m 0 min 0 min 0 W/m 35,4 km/h (5 Bft) 100,00 %
15.11.2020 20:36 10,1 C 9,4 C 7,8 C 88 % 1003,3 hPa 0,0 l/m 0 min 0 min 0 W/m 22,5 km/h (4 Bft) 100,00 %
15.11.2020 20:38 10,1 C 9,4 C 7,8 C 87 % 1003,4 hPa 0,0 l/m 0 min 0 min 0 W/m 35,4 km/h (5 Bft) 100,00 %
15.11.2020 20:40 10,1 C 9,4 C 7,8 C 87 % 1003,5 hPa 0,0 l/m 0 min 0 min 0 W/m 29,0 km/h (5 Bft) 100,00 %
15.11.2020 20:42 10,1 C 9,4 C 7,8 C 87 % 1003,6 hPa 0,0 l/m 0 min 0 min 0 W/m 22,5 km/h (4 Bft) 97,83 %
15.11.2020 20:44 10,1 C 9,4 C 7,8 C 87 % 1003,7 hPa 0,0 l/m 0 min 0 min 0 W/m 38,6 km/h (5 Bft) 100,00 %
15.11.2020 20:46 10,0 C 9,4 C 7,8 C 87 % 1003,8 hPa 0,0 l/m 0 min 0 min 0 W/m 29,0 km/h (5 Bft) 100,00 %
15.11.2020 20:48 10,0 C 9,4 C 7,8 C 87 % 1003,9 hPa 0,0 l/m 0 min 0 min 0 W/m 22,5 km/h (4 Bft) 100,00 %
15.11.2020 20:50 10,0 C 9,4 C 7,8 C 87 % 1004,0 hPa 0,0 l/m 0 min 0 min 0 W/m 32,2 km/h (5 Bft) 97,87 %
15.11.2020 20:52 10,0 C 9,4 C 7,8 C 87 % 1004,0 hPa 0,0 l/m 0 min 0 min 0 W/m 29,0 km/h (5 Bft) 100,00 %
15.11.2020 20:54 10,0 C 9,4 C 7,8 C 86 % 1004,0 hPa 0,0 l/m 0 min 0 min 0 W/m 19,3 km/h (3 Bft) 98,08 %
15.11.2020 20:56 10,0 C 9,4 C 7,8 C 86 % 1004,0 hPa 0,0 l/m 0 min 0 min 0 W/m 29,0 km/h (5 Bft) 100,00 %
15.11.2020 20:58 10,0 C 9,4 C 7,8 C 86 % 1004,0 hPa 0,0 l/m 0 min 0 min 0 W/m 16,1 km/h (3 Bft) 100,00 %
15.11.2020 21:00 10,0 C 9,4 C 7,2 C 86 % 1004,0 hPa 0,0 l/m 0 min 0 min 0 W/m 25,7 km/h (4 Bft) 100,00 %
15.11.2020 21:02 10,0 C 9,4 C 7,8 C 86 % 1004,0 hPa 0,0 l/m 0 min 0 min 0 W/m 22,5 km/h (4 Bft) 97,56 %
15.11.2020 21:04 9,9 C 9,4 C 7,2 C 86 % 1003,9 hPa 0,0 l/m 0 min 0 min 0 W/m 22,5 km/h (4 Bft) 97,87 %
15.11.2020 21:06 9,9 C 9,4 C 7,2 C 86 % 1004,0 hPa 0,0 l/m 0 min 0 min 0 W/m 12,9 km/h (3 Bft) 100,00 %
15.11.2020 21:08 9,9 C 9,4 C 7,2 C 86 % 1004,0 hPa 0,0 l/m 0 min 0 min 0 W/m 22,5 km/h (4 Bft) 54,55 %
15.11.2020 21:10 9,9 C 9,4 C 7,2 C 86 % 1004,0 hPa 0,0 l/m 0 min 0 min 0 W/m 12,9 km/h (3 Bft) 100,00 %
15.11.2020 21:12 9,9 C 9,4 C 7,2 C 86 % 1004,0 hPa 0,0 l/m 0 min 0 min 0 W/m 22,5 km/h (4 Bft) 97,87 %
15.11.2020 21:14 9,9 C 9,4 C 7,2 C 86 % 1003,9 hPa 0,0 l/m 0 min 0 min 0 W/m 29,0 km/h (5 Bft) 97,87 %
15.11.2020 21:16 9,9 C 9,4 C 7,2 C 86 % 1004,0 hPa 0,0 l/m 0 min 0 min 0 W/m 29,0 km/h (5 Bft) 100,00 %
15.11.2020 21:18 9,9 C 9,4 C 7,8 C 86 % 1004,1 hPa 0,0 l/m 0 min 0 min 0 W/m 12,9 km/h (3 Bft) 95,65 %
15.11.2020 21:20 9,8 C 9,4 C 7,8 C 86 % 1004,1 hPa 0,0 l/m 0 min 0 min 0 W/m 22,5 km/h (4 Bft) 97,87 %
15.11.2020 21:22 9,8 C 8,9 C 7,8 C 86 % 1004,1 hPa 0,0 l/m 0 min 0 min 0 W/m 19,3 km/h (3 Bft) 98,11 %
15.11.2020 21:24 9,8 C 8,9 C 7,8 C 86 % 1004,1 hPa 0,0 l/m 0 min 0 min 0 W/m 19,3 km/h (3 Bft) 95,74 %
15.11.2020 21:26 9,8 C 8,9 C 7,8 C 86 % 1004,0 hPa 0,0 l/m 0 min 0 min 0 W/m 19,3 km/h (3 Bft) 95,74 %
15.11.2020 21:28 9,8 C 8,9 C 7,8 C 86 % 1004,0 hPa 0,0 l/m 0 min 0 min 0 W/m 32,2 km/h (5 Bft) 97,83 %
15.11.2020 21:30 9,8 C 8,9 C 7,8 C 86 % 1004,0 hPa 0,0 l/m 0 min 0 min 0 W/m 12,9 km/h (3 Bft) 95,74 %
15.11.2020 21:32 9,8 C 8,9 C 7,8 C 86 % 1004,0 hPa 0,0 l/m 0 min 0 min 0 W/m 22,5 km/h (4 Bft) 97,92 %
15.11.2020 21:34 9,8 C 9,4 C 7,8 C 86 % 1004,1 hPa 0,0 l/m 0 min 0 min 0 W/m 22,5 km/h (4 Bft) 95,74 %
15.11.2020 21:36 9,8 C 9,4 C 7,8 C 85 % 1004,1 hPa 0,0 l/m 0 min 0 min 0 W/m 29,0 km/h (5 Bft) 95,74 %
15.11.2020 21:38 9,8 C 9,4 C 7,8 C 85 % 1004,2 hPa 0,0 l/m 0 min 0 min 0 W/m 16,1 km/h (3 Bft) 97,87 %
15.11.2020 21:40 9,8 C 9,4 C 7,8 C 85 % 1004,2 hPa 0,0 l/m 0 min 0 min 0 W/m 9,7 km/h (2 Bft) 97,83 %
15.11.2020 21:42 9,8 C 9,4 C 7,8 C 85 % 1004,2 hPa 0,0 l/m 0 min 0 min 0 W/m 16,1 km/h (3 Bft) 97,87 %
15.11.2020 21:44 9,8 C 9,4 C 7,8 C 85 % 1004,2 hPa 0,0 l/m 0 min 0 min 0 W/m 19,3 km/h (3 Bft) 93,62 %
15.11.2020 21:46 9,8 C 8,9 C 7,8 C 85 % 1004,1 hPa 0,0 l/m 0 min 0 min 0 W/m 12,9 km/h (3 Bft) 95,74 %
15.11.2020 21:48 9,8 C 8,9 C 7,8 C 85 % 1004,2 hPa 0,0 l/m 0 min 0 min 0 W/m 19,3 km/h (3 Bft) 95,74 %
15.11.2020 21:50 9,8 C 8,9 C 7,8 C 85 % 1004,1 hPa 0,0 l/m 0 min 0 min 0 W/m 16,1 km/h (3 Bft) 95,74 %
15.11.2020 21:52 9,8 C 8,9 C 7,8 C 85 % 1004,1 hPa 0,0 l/m 0 min 0 min 0 W/m 9,7 km/h (2 Bft) 95,65 %
15.11.2020 21:54 9,7 C 8,9 C 7,8 C 85 % 1004,1 hPa 0,0 l/m 0 min 0 min 0 W/m 3,2 km/h (1 Bft) 95,74 %
15.11.2020 21:56 9,7 C 8,9 C 7,8 C 85 % 1004,1 hPa 0,0 l/m 0 min 0 min 0 W/m 22,5 km/h (4 Bft) 95,74 %
15.11.2020 21:58 9,7 C 8,9 C 7,8 C 85 % 1004,0 hPa 0,0 l/m 0 min 0 min 0 W/m 6,4 km/h (2 Bft) 97,87 %
15.11.2020 22:00 9,7 C 9,4 C 7,8 C 84 % 1004,1 hPa 0,0 l/m 0 min 0 min 0 W/m 25,7 km/h (4 Bft) 95,74 %
15.11.2020 22:02 9,7 C 9,4 C 8,4 C 84 % 1004,1 hPa 0,0 l/m 0 min 0 min 0 W/m 12,9 km/h (3 Bft) 95,74 %
15.11.2020 22:04 9,7 C 8,9 C 7,8 C 84 % 1004,2 hPa 0,0 l/m 0 min 0 min 0 W/m 16,1 km/h (3 Bft) 95,74 %
15.11.2020 22:06 9,7 C 8,9 C 7,8 C 84 % 1004,1 hPa 0,0 l/m 0 min 0 min 0 W/m 22,5 km/h (4 Bft) 97,87 %
15.11.2020 22:08 9,7 C 8,9 C 7,8 C 84 % 1004,2 hPa 0,0 l/m 0 min 0 min 0 W/m 22,5 km/h (4 Bft) 97,87 %
15.11.2020 22:10 9,7 C 8,9 C 7,8 C 84 % 1004,1 hPa 0,0 l/m 0 min 0 min 0 W/m 22,5 km/h (4 Bft) 97,87 %
15.11.2020 22:12 9,7 C 9,4 C 8,4 C 84 % 1004,2 hPa 0,0 l/m 0 min 0 min 0 W/m 32,2 km/h (5 Bft) 97,87 %
15.11.2020 22:14 9,7 C 8,9 C 8,4 C 84 % 1004,1 hPa 0,0 l/m 0 min 0 min 0 W/m 16,1 km/h (3 Bft) 97,83 %
15.11.2020 22:16 9,7 C 8,9 C 7,8 C 84 % 1004,2 hPa 0,0 l/m 0 min 0 min 0 W/m 3,2 km/h (1 Bft) 97,44 %
15.11.2020 22:18 9,7 C 8,9 C 7,8 C 84 % 1004,1 hPa 0,0 l/m 0 min 0 min 0 W/m 12,9 km/h (3 Bft) 97,87 %
15.11.2020 22:20 9,7 C 8,9 C 7,8 C 84 % 1004,3 hPa 0,0 l/m 0 min 0 min 0 W/m 16,1 km/h (3 Bft) 97,87 %
15.11.2020 22:22 9,7 C 8,9 C 7,8 C 84 % 1004,1 hPa 0,0 l/m 0 min 0 min 0 W/m 29,0 km/h (5 Bft) 95,74 %
15.11.2020 22:24 9,7 C 9,4 C 8,4 C 84 % 1004,3 hPa 0,0 l/m 0 min 0 min 0 W/m 29,0 km/h (5 Bft) 97,87 %
15.11.2020 22:26 9,7 C 9,4 C 8,4 C 84 % 1004,3 hPa 0,0 l/m 0 min 0 min 0 W/m 25,7 km/h (4 Bft) 97,87 %
15.11.2020 22:28 9,7 C 9,4 C 8,4 C 84 % 1004,2 hPa 0,0 l/m 0 min 0 min 0 W/m 22,5 km/h (4 Bft) 97,87 %
15.11.2020 22:30 9,8 C 9,4 C 8,4 C 83 % 1004,3 hPa 0,0 l/m 0 min 0 min 0 W/m 35,4 km/h (5 Bft) 98,21 %
15.11.2020 22:32 9,8 C 9,4 C 8,4 C 83 % 1004,0 hPa 0,0 l/m 0 min 0 min 0 W/m 19,3 km/h (3 Bft) 96,00 %
15.11.2020 22:34 9,8 C 9,4 C 8,4 C 83 % 1004,1 hPa 0,0 l/m 0 min 0 min 0 W/m 22,5 km/h (4 Bft) 100,00 %
15.11.2020 22:36 9,9 C 9,4 C 8,4 C 83 % 1004,1 hPa 0,0 l/m 0 min 0 min 0 W/m 16,1 km/h (3 Bft) 97,92 %
15.11.2020 22:38 9,9 C 9,4 C 8,4 C 83 % 1004,2 hPa 0,0 l/m 0 min 0 min 0 W/m 32,2 km/h (5 Bft) 96,30 %
15.11.2020 22:40 9,9 C 9,4 C 8,4 C 83 % 1004,1 hPa 0,0 l/m 0 min 0 min 0 W/m 32,2 km/h (5 Bft) 97,87 %
15.11.2020 22:42 9,9 C 9,4 C 8,4 C 83 % 1004,1 hPa 0,0 l/m 0 min 0 min 0 W/m 29,0 km/h (5 Bft) 97,37 %
15.11.2020 22:44 9,9 C 9,4 C 8,4 C 83 % 1004,0 hPa 0,0 l/m 0 min 0 min 0 W/m 19,3 km/h (3 Bft) 98,00 %
15.11.2020 22:46 10,0 C 9,4 C 8,4 C 83 % 1004,1 hPa 0,0 l/m 0 min 0 min 0 W/m 38,6 km/h (5 Bft) 96,00 %
15.11.2020 22:48 10,0 C 9,4 C 8,4 C 83 % 1004,1 hPa 0,0 l/m 0 min 0 min 0 W/m 12,9 km/h (3 Bft) 100,00 %
15.11.2020 22:50 10,0 C 9,4 C 8,4 C 83 % 1004,1 hPa 0,0 l/m 0 min 0 min 0 W/m 16,1 km/h (3 Bft) 96,30 %
15.11.2020 22:52 10,0 C 9,4 C 8,4 C 83 % 1004,2 hPa 0,0 l/m 0 min 0 min 0 W/m 45,1 km/h (6 Bft) 98,00 %
15.11.2020 22:54 10,0 C 9,4 C 8,4 C 83 % 1004,0 hPa 0,0 l/m 0 min 0 min 0 W/m 22,5 km/h (4 Bft) 98,00 %
15.11.2020 22:56 10,0 C 9,4 C 8,4 C 82 % 1004,1 hPa 0,0 l/m 0 min 0 min 0 W/m 25,7 km/h (4 Bft) 97,30 %
15.11.2020 22:58 9,9 C 9,4 C 8,4 C 82 % 1004,1 hPa 0,0 l/m 0 min 0 min 0 W/m 22,5 km/h (4 Bft) 98,04 %
15.11.2020 23:00 10,0 C 9,4 C 8,4 C 82 % 1004,2 hPa 0,0 l/m 0 min 0 min 0 W/m 38,6 km/h (5 Bft) 97,96 %
15.11.2020 23:02 10,0 C 9,4 C 8,4 C 82 % 1004,0 hPa 0,0 l/m 0 min 0 min 0 W/m 25,7 km/h (4 Bft) 94,87 %
15.11.2020 23:04 10,0 C 9,4 C 8,4 C 82 % 1004,0 hPa 0,0 l/m 0 min 0 min 0 W/m 29,0 km/h (5 Bft) 97,96 %
15.11.2020 23:06 10,0 C 9,4 C 8,4 C 82 % 1004,0 hPa 0,0 l/m 0 min 0 min 0 W/m 38,6 km/h (5 Bft) 97,92 %
15.11.2020 23:08 10,0 C 9,4 C 8,4 C 82 % 1004,1 hPa 0,0 l/m 0 min 0 min 0 W/m 29,0 km/h (5 Bft) 98,18 %
15.11.2020 23:10 10,0 C 9,4 C 8,4 C 82 % 1004,1 hPa 0,0 l/m 0 min 0 min 0 W/m 45,1 km/h (6 Bft) 97,83 %
15.11.2020 23:12 10,0 C 9,4 C 8,4 C 82 % 1004,0 hPa 0,0 l/m 0 min 0 min 0 W/m 32,2 km/h (5 Bft) 97,44 %
15.11.2020 23:14 10,1 C 9,4 C 8,4 C 82 % 1004,0 hPa 0,0 l/m 0 min 0 min 0 W/m 29,0 km/h (5 Bft) 97,96 %
15.11.2020 23:16 10,1 C 9,4 C 8,4 C 82 % 1003,9 hPa 0,0 l/m 0 min 0 min 0 W/m 32,2 km/h (5 Bft) 98,00 %
15.11.2020 23:18 10,1 C 9,4 C 8,4 C 82 % 1004,0 hPa 0,0 l/m 0 min 0 min 0 W/m 29,0 km/h (5 Bft) 97,30 %
15.11.2020 23:20 10,1 C 9,4 C 8,4 C 82 % 1003,9 hPa 0,0 l/m 0 min 0 min 0 W/m 38,6 km/h (5 Bft) 98,15 %
15.11.2020 23:22 10,1 C 9,4 C 8,4 C 82 % 1004,0 hPa 0,0 l/m 0 min 0 min 0 W/m 25,7 km/h (4 Bft) 98,00 %
15.11.2020 23:24 10,1 C 9,4 C 8,4 C 82 % 1004,0 hPa 0,0 l/m 0 min 0 min 0 W/m 25,7 km/h (4 Bft) 97,96 %
15.11.2020 23:26 10,1 C 9,4 C 8,4 C 82 % 1004,0 hPa 0,0 l/m 0 min 0 min 0 W/m 25,7 km/h (4 Bft) 97,37 %
15.11.2020 23:28 10,1 C 9,4 C 8,4 C 82 % 1004,1 hPa 0,0 l/m 0 min 0 min 0 W/m 29,0 km/h (5 Bft) 97,92 %
15.11.2020 23:30 10,1 C 9,4 C 8,4 C 82 % 1004,1 hPa 0,0 l/m 0 min 0 min 0 W/m 32,2 km/h (5 Bft) 96,36 %
15.11.2020 23:32 10,1 C 9,4 C 8,4 C 82 % 1004,1 hPa 0,0 l/m 0 min 0 min 0 W/m 35,4 km/h (5 Bft) 97,37 %
15.11.2020 23:34 10,1 C 9,4 C 8,4 C 82 % 1004,2 hPa 0,0 l/m 0 min 0 min 0 W/m 41,8 km/h (6 Bft) 98,00 %
15.11.2020 23:36 10,1 C 9,4 C 8,4 C 82 % 1004,2 hPa 0,0 l/m 0 min 0 min 0 W/m 25,7 km/h (4 Bft) 97,92 %
15.11.2020 23:38 10,1 C 9,4 C 8,4 C 82 % 1004,2 hPa 0,0 l/m 0 min 0 min 0 W/m 48,3 km/h (6 Bft) 95,83 %
15.11.2020 23:40 10,1 C 9,4 C 8,4 C 82 % 1004,3 hPa 0,0 l/m 0 min 0 min 0 W/m 22,5 km/h (4 Bft) 100,00 %
15.11.2020 23:42 10,1 C 9,4 C 8,4 C 82 % 1004,4 hPa 0,0 l/m 0 min 0 min 0 W/m 38,6 km/h (5 Bft) 100,00 %
15.11.2020 23:44 10,1 C 9,4 C 8,4 C 82 % 1004,3 hPa 0,0 l/m 0 min 0 min 0 W/m 16,1 km/h (3 Bft) 100,00 %
15.11.2020 23:46 10,1 C 9,4 C 8,4 C 82 % 1004,4 hPa 0,0 l/m 0 min 0 min 0 W/m 16,1 km/h (3 Bft) 100,00 %
15.11.2020 23:48 10,1 C 9,4 C 8,4 C 82 % 1004,5 hPa 0,0 l/m 0 min 0 min 0 W/m 19,3 km/h (3 Bft) 95,74 %
15.11.2020 23:50 10,1 C 9,4 C 8,4 C 82 % 1004,6 hPa 0,0 l/m 0 min 0 min 0 W/m 38,6 km/h (5 Bft) 100,00 %
15.11.2020 23:52 10,1 C 9,4 C 8,4 C 82 % 1004,7 hPa 0,0 l/m 0 min 0 min 0 W/m 25,7 km/h (4 Bft) 97,87 %
15.11.2020 23:54 10,1 C 9,4 C 8,4 C 82 % 1004,7 hPa 0,0 l/m 0 min 0 min 0 W/m 25,7 km/h (4 Bft) 100,00 %
15.11.2020 23:56 10,1 C 9,4 C 8,4 C 82 % 1004,8 hPa 0,0 l/m 0 min 0 min 0 W/m 22,5 km/h (4 Bft) 97,87 %
15.11.2020 23:58 10,0 C 9,4 C 8,4 C 82 % 1004,9 hPa 0,0 l/m 0 min 0 min 0 W/m 22,5 km/h (4 Bft) 95,74 %
_ Min-Zeit 21:54 19:30 21:00 16:02 18:20 - - - - 00:08 19:18
Minimum _ 9,7 C 8,3 C 7,2 C 75 % 1000,5 hPa - - - - 0,0 km/h (0 Bft) 52,17 %
_ Max-Zeit 15:44 11:28 12:30 19:14 00:00 18:44 11:06 15:38 12:32 18:56 00:00
Maximum _ 16,5 C 18,9 C 17,8 C 94 % 1012,3 hPa 1,0 l/m 2 min 2 min 390 W/m 74,0 km/h
S-SO (8 Bft)
100,00 %
Durchschnitt _ 13,2 C 12,4 C 11,3 C 86 % 1006,6 hPa #8,4 l/m #1:00 h #3:10 h 78 W/m 18,1 km/h (3 Bft) 97,50 %
© 2020 W. Hausmann